<?xml version="1.0" encoding="UTF-8" standalone="no" ?>
<gpx xmlns="http://www.topografix.com/GPX/1/1" xmlns:xsi="http://www.w3.org/2001/XMLSchema-instance" xsi:schemaLocation="http://www.topografix.com/GPX/1/1 http://www.topografix.com/GPX/1/1/gpx.xsd" version="1.1" creator="VisuGPX - https://www.visugpx.com">
  <metadata>
    <name>Randonnée du 19/06/2024 à 09:07</name>
  </metadata>
  <trk>
    <name><![CDATA[Randonnée du 19/06/2024 à 09:07]]></name>
    <extensions>
      <line xmlns="http://www.topografix.com/GPX/gpx_style/0/2">
        <color>0000FF</color>
        <width>4</width>
      </line>
    </extensions>
    <trkseg>
      <trkpt lat="44.20842" lon="0.89391">
        <ele>90.8</ele>
        <time>2024-06-19T09:07:37+02:00</time>
      </trkpt>
      <trkpt lat="44.20851" lon="0.89401">
        <ele>90.1</ele>
        <time>2024-06-19T09:09:51+02:00</time>
      </trkpt>
      <trkpt lat="44.20861" lon="0.89404">
        <ele>89.9</ele>
        <time>2024-06-19T09:10:01+02:00</time>
      </trkpt>
      <trkpt lat="44.2085" lon="0.89409">
        <ele>89.6</ele>
        <time>2024-06-19T09:11:51+02:00</time>
      </trkpt>
      <trkpt lat="44.20843" lon="0.89399">
        <ele>90.2</ele>
        <time>2024-06-19T09:12:01+02:00</time>
      </trkpt>
      <trkpt lat="44.20853" lon="0.89405">
        <ele>89.8</ele>
        <time>2024-06-19T09:13:56+02:00</time>
      </trkpt>
      <trkpt lat="44.20865" lon="0.89404">
        <ele>89.7</ele>
        <time>2024-06-19T09:14:15+02:00</time>
      </trkpt>
      <trkpt lat="44.20868" lon="0.89419">
        <ele>88.7</ele>
        <time>2024-06-19T09:14:25+02:00</time>
      </trkpt>
      <trkpt lat="44.20867" lon="0.89438">
        <ele>88.8</ele>
        <time>2024-06-19T09:14:40+02:00</time>
      </trkpt>
      <trkpt lat="44.2087" lon="0.89454">
        <ele>88.4</ele>
        <time>2024-06-19T09:14:54+02:00</time>
      </trkpt>
      <trkpt lat="44.20868" lon="0.89472">
        <ele>88</ele>
        <time>2024-06-19T09:15:04+02:00</time>
      </trkpt>
      <trkpt lat="44.20862" lon="0.89487">
        <ele>88</ele>
        <time>2024-06-19T09:15:13+02:00</time>
      </trkpt>
      <trkpt lat="44.20859" lon="0.895">
        <ele>88</ele>
        <time>2024-06-19T09:15:23+02:00</time>
      </trkpt>
      <trkpt lat="44.2086" lon="0.89514">
        <ele>88</ele>
        <time>2024-06-19T09:15:32+02:00</time>
      </trkpt>
      <trkpt lat="44.20868" lon="0.89524">
        <ele>88</ele>
        <time>2024-06-19T09:15:41+02:00</time>
      </trkpt>
      <trkpt lat="44.20874" lon="0.89535">
        <ele>88</ele>
        <time>2024-06-19T09:15:50+02:00</time>
      </trkpt>
      <trkpt lat="44.20881" lon="0.89548">
        <ele>88</ele>
        <time>2024-06-19T09:16:04+02:00</time>
      </trkpt>
      <trkpt lat="44.20881" lon="0.89562">
        <ele>88.2</ele>
        <time>2024-06-19T09:16:14+02:00</time>
      </trkpt>
      <trkpt lat="44.20888" lon="0.89577">
        <ele>88.8</ele>
        <time>2024-06-19T09:16:24+02:00</time>
      </trkpt>
      <trkpt lat="44.20891" lon="0.89593">
        <ele>89.3</ele>
        <time>2024-06-19T09:16:34+02:00</time>
      </trkpt>
      <trkpt lat="44.20894" lon="0.89609">
        <ele>89.8</ele>
        <time>2024-06-19T09:16:44+02:00</time>
      </trkpt>
      <trkpt lat="44.20899" lon="0.89625">
        <ele>90.7</ele>
        <time>2024-06-19T09:16:54+02:00</time>
      </trkpt>
      <trkpt lat="44.20901" lon="0.89641">
        <ele>91.6</ele>
        <time>2024-06-19T09:17:03+02:00</time>
      </trkpt>
      <trkpt lat="44.20905" lon="0.89656">
        <ele>92.1</ele>
        <time>2024-06-19T09:17:13+02:00</time>
      </trkpt>
      <trkpt lat="44.20913" lon="0.89666">
        <ele>92.1</ele>
        <time>2024-06-19T09:17:23+02:00</time>
      </trkpt>
      <trkpt lat="44.2092" lon="0.89674">
        <ele>92.6</ele>
        <time>2024-06-19T09:17:32+02:00</time>
      </trkpt>
      <trkpt lat="44.20929" lon="0.89685">
        <ele>93</ele>
        <time>2024-06-19T09:17:47+02:00</time>
      </trkpt>
      <trkpt lat="44.20936" lon="0.89698">
        <ele>93.2</ele>
        <time>2024-06-19T09:17:56+02:00</time>
      </trkpt>
      <trkpt lat="44.20942" lon="0.89708">
        <ele>93.8</ele>
        <time>2024-06-19T09:18:06+02:00</time>
      </trkpt>
      <trkpt lat="44.20949" lon="0.8972">
        <ele>94.3</ele>
        <time>2024-06-19T09:18:15+02:00</time>
      </trkpt>
      <trkpt lat="44.20962" lon="0.8973">
        <ele>94.4</ele>
        <time>2024-06-19T09:18:25+02:00</time>
      </trkpt>
      <trkpt lat="44.20972" lon="0.8974">
        <ele>94.7</ele>
        <time>2024-06-19T09:18:34+02:00</time>
      </trkpt>
      <trkpt lat="44.20981" lon="0.8975">
        <ele>95.3</ele>
        <time>2024-06-19T09:18:44+02:00</time>
      </trkpt>
      <trkpt lat="44.2099" lon="0.89759">
        <ele>96.3</ele>
        <time>2024-06-19T09:18:53+02:00</time>
      </trkpt>
      <trkpt lat="44.20998" lon="0.89765">
        <ele>96.4</ele>
        <time>2024-06-19T09:19:02+02:00</time>
      </trkpt>
      <trkpt lat="44.21008" lon="0.89779">
        <ele>98</ele>
        <time>2024-06-19T09:19:12+02:00</time>
      </trkpt>
      <trkpt lat="44.21018" lon="0.89792">
        <ele>99.6</ele>
        <time>2024-06-19T09:19:21+02:00</time>
      </trkpt>
      <trkpt lat="44.21025" lon="0.89802">
        <ele>100</ele>
        <time>2024-06-19T09:19:31+02:00</time>
      </trkpt>
      <trkpt lat="44.21032" lon="0.89812">
        <ele>100.7</ele>
        <time>2024-06-19T09:19:40+02:00</time>
      </trkpt>
      <trkpt lat="44.21036" lon="0.89827">
        <ele>102.3</ele>
        <time>2024-06-19T09:19:49+02:00</time>
      </trkpt>
      <trkpt lat="44.2104" lon="0.89839">
        <ele>103.4</ele>
        <time>2024-06-19T09:19:59+02:00</time>
      </trkpt>
      <trkpt lat="44.21039" lon="0.89855">
        <ele>104.6</ele>
        <time>2024-06-19T09:20:08+02:00</time>
      </trkpt>
      <trkpt lat="44.21044" lon="0.89866">
        <ele>104.2</ele>
        <time>2024-06-19T09:20:17+02:00</time>
      </trkpt>
      <trkpt lat="44.21049" lon="0.89886">
        <ele>104.6</ele>
        <time>2024-06-19T09:20:32+02:00</time>
      </trkpt>
      <trkpt lat="44.21049" lon="0.89899">
        <ele>105.4</ele>
        <time>2024-06-19T09:20:41+02:00</time>
      </trkpt>
      <trkpt lat="44.21051" lon="0.89913">
        <ele>106.1</ele>
        <time>2024-06-19T09:21:06+02:00</time>
      </trkpt>
      <trkpt lat="44.21051" lon="0.89929">
        <ele>107.3</ele>
        <time>2024-06-19T09:21:15+02:00</time>
      </trkpt>
      <trkpt lat="44.21051" lon="0.89942">
        <ele>108.1</ele>
        <time>2024-06-19T09:21:20+02:00</time>
      </trkpt>
      <trkpt lat="44.21052" lon="0.8996">
        <ele>109.8</ele>
        <time>2024-06-19T09:21:30+02:00</time>
      </trkpt>
      <trkpt lat="44.21054" lon="0.89975">
        <ele>111.3</ele>
        <time>2024-06-19T09:21:39+02:00</time>
      </trkpt>
      <trkpt lat="44.21056" lon="0.89992">
        <ele>112.4</ele>
        <time>2024-06-19T09:21:49+02:00</time>
      </trkpt>
      <trkpt lat="44.2106" lon="0.90005">
        <ele>113.8</ele>
        <time>2024-06-19T09:21:59+02:00</time>
      </trkpt>
      <trkpt lat="44.2107" lon="0.90008">
        <ele>115.3</ele>
        <time>2024-06-19T09:22:09+02:00</time>
      </trkpt>
      <trkpt lat="44.21078" lon="0.90001">
        <ele>115.6</ele>
        <time>2024-06-19T09:22:18+02:00</time>
      </trkpt>
      <trkpt lat="44.2109" lon="0.90002">
        <ele>117.9</ele>
        <time>2024-06-19T09:22:28+02:00</time>
      </trkpt>
      <trkpt lat="44.21096" lon="0.89993">
        <ele>118.9</ele>
        <time>2024-06-19T09:22:37+02:00</time>
      </trkpt>
      <trkpt lat="44.21101" lon="0.89982">
        <ele>119.6</ele>
        <time>2024-06-19T09:22:47+02:00</time>
      </trkpt>
      <trkpt lat="44.21108" lon="0.8997">
        <ele>120.9</ele>
        <time>2024-06-19T09:22:57+02:00</time>
      </trkpt>
      <trkpt lat="44.21114" lon="0.89957">
        <ele>121.7</ele>
        <time>2024-06-19T09:23:07+02:00</time>
      </trkpt>
      <trkpt lat="44.2112" lon="0.89942">
        <ele>122</ele>
        <time>2024-06-19T09:23:21+02:00</time>
      </trkpt>
      <trkpt lat="44.21129" lon="0.89932">
        <ele>123.7</ele>
        <time>2024-06-19T09:23:31+02:00</time>
      </trkpt>
      <trkpt lat="44.21142" lon="0.89932">
        <ele>127.7</ele>
        <time>2024-06-19T09:23:45+02:00</time>
      </trkpt>
      <trkpt lat="44.21147" lon="0.89947">
        <ele>130.5</ele>
        <time>2024-06-19T09:23:54+02:00</time>
      </trkpt>
      <trkpt lat="44.21144" lon="0.89963">
        <ele>130.1</ele>
        <time>2024-06-19T09:24:04+02:00</time>
      </trkpt>
      <trkpt lat="44.2114" lon="0.89976">
        <ele>130</ele>
        <time>2024-06-19T09:24:14+02:00</time>
      </trkpt>
      <trkpt lat="44.21141" lon="0.89989">
        <ele>131.9</ele>
        <time>2024-06-19T09:24:23+02:00</time>
      </trkpt>
      <trkpt lat="44.21143" lon="0.90003">
        <ele>134.2</ele>
        <time>2024-06-19T09:24:33+02:00</time>
      </trkpt>
      <trkpt lat="44.21144" lon="0.90018">
        <ele>135.3</ele>
        <time>2024-06-19T09:24:43+02:00</time>
      </trkpt>
      <trkpt lat="44.21136" lon="0.90035">
        <ele>134.3</ele>
        <time>2024-06-19T09:24:57+02:00</time>
      </trkpt>
      <trkpt lat="44.21135" lon="0.90055">
        <ele>134.5</ele>
        <time>2024-06-19T09:25:12+02:00</time>
      </trkpt>
      <trkpt lat="44.21135" lon="0.90069">
        <ele>135.2</ele>
        <time>2024-06-19T09:25:21+02:00</time>
      </trkpt>
      <trkpt lat="44.21136" lon="0.90084">
        <ele>135.8</ele>
        <time>2024-06-19T09:25:31+02:00</time>
      </trkpt>
      <trkpt lat="44.21141" lon="0.90097">
        <ele>137.4</ele>
        <time>2024-06-19T09:25:40+02:00</time>
      </trkpt>
      <trkpt lat="44.21143" lon="0.9011">
        <ele>138</ele>
        <time>2024-06-19T09:25:50+02:00</time>
      </trkpt>
      <trkpt lat="44.21142" lon="0.90125">
        <ele>138.4</ele>
        <time>2024-06-19T09:26:00+02:00</time>
      </trkpt>
      <trkpt lat="44.21144" lon="0.90138">
        <ele>139.6</ele>
        <time>2024-06-19T09:26:09+02:00</time>
      </trkpt>
      <trkpt lat="44.21145" lon="0.90152">
        <ele>141</ele>
        <time>2024-06-19T09:26:19+02:00</time>
      </trkpt>
      <trkpt lat="44.21145" lon="0.90166">
        <ele>142</ele>
        <time>2024-06-19T09:26:29+02:00</time>
      </trkpt>
      <trkpt lat="44.21146" lon="0.90181">
        <ele>143</ele>
        <time>2024-06-19T09:26:38+02:00</time>
      </trkpt>
      <trkpt lat="44.21144" lon="0.90201">
        <ele>143.8</ele>
        <time>2024-06-19T09:26:48+02:00</time>
      </trkpt>
      <trkpt lat="44.21145" lon="0.90217">
        <ele>145.1</ele>
        <time>2024-06-19T09:26:58+02:00</time>
      </trkpt>
      <trkpt lat="44.21142" lon="0.90237">
        <ele>146.4</ele>
        <time>2024-06-19T09:27:12+02:00</time>
      </trkpt>
      <trkpt lat="44.21136" lon="0.90251">
        <ele>146.6</ele>
        <time>2024-06-19T09:27:22+02:00</time>
      </trkpt>
      <trkpt lat="44.21133" lon="0.90266">
        <ele>148.2</ele>
        <time>2024-06-19T09:27:31+02:00</time>
      </trkpt>
      <trkpt lat="44.21129" lon="0.90277">
        <ele>149.2</ele>
        <time>2024-06-19T09:27:41+02:00</time>
      </trkpt>
      <trkpt lat="44.21122" lon="0.9029">
        <ele>149.1</ele>
        <time>2024-06-19T09:27:50+02:00</time>
      </trkpt>
      <trkpt lat="44.21115" lon="0.90306">
        <ele>149.6</ele>
        <time>2024-06-19T09:28:00+02:00</time>
      </trkpt>
      <trkpt lat="44.21106" lon="0.90315">
        <ele>149.6</ele>
        <time>2024-06-19T09:28:09+02:00</time>
      </trkpt>
      <trkpt lat="44.21097" lon="0.90322">
        <ele>149.7</ele>
        <time>2024-06-19T09:28:18+02:00</time>
      </trkpt>
      <trkpt lat="44.21087" lon="0.90329">
        <ele>149.8</ele>
        <time>2024-06-19T09:28:28+02:00</time>
      </trkpt>
      <trkpt lat="44.21079" lon="0.90336">
        <ele>150.5</ele>
        <time>2024-06-19T09:28:38+02:00</time>
      </trkpt>
      <trkpt lat="44.21071" lon="0.90344">
        <ele>151.5</ele>
        <time>2024-06-19T09:28:48+02:00</time>
      </trkpt>
      <trkpt lat="44.21061" lon="0.90351">
        <ele>152.7</ele>
        <time>2024-06-19T09:28:58+02:00</time>
      </trkpt>
      <trkpt lat="44.21052" lon="0.90361">
        <ele>154.1</ele>
        <time>2024-06-19T09:29:13+02:00</time>
      </trkpt>
      <trkpt lat="44.21044" lon="0.9037">
        <ele>155.4</ele>
        <time>2024-06-19T09:29:22+02:00</time>
      </trkpt>
      <trkpt lat="44.21043" lon="0.90384">
        <ele>156.8</ele>
        <time>2024-06-19T09:29:32+02:00</time>
      </trkpt>
      <trkpt lat="44.21047" lon="0.90395">
        <ele>157.3</ele>
        <time>2024-06-19T09:29:42+02:00</time>
      </trkpt>
      <trkpt lat="44.21048" lon="0.90411">
        <ele>158</ele>
        <time>2024-06-19T09:29:52+02:00</time>
      </trkpt>
      <trkpt lat="44.21047" lon="0.90425">
        <ele>158.6</ele>
        <time>2024-06-19T09:30:02+02:00</time>
      </trkpt>
      <trkpt lat="44.21043" lon="0.9044">
        <ele>159.3</ele>
        <time>2024-06-19T09:30:11+02:00</time>
      </trkpt>
      <trkpt lat="44.21038" lon="0.90453">
        <ele>159.7</ele>
        <time>2024-06-19T09:30:20+02:00</time>
      </trkpt>
      <trkpt lat="44.21034" lon="0.90466">
        <ele>159.9</ele>
        <time>2024-06-19T09:30:29+02:00</time>
      </trkpt>
      <trkpt lat="44.21028" lon="0.9048">
        <ele>160.3</ele>
        <time>2024-06-19T09:30:39+02:00</time>
      </trkpt>
      <trkpt lat="44.21022" lon="0.90495">
        <ele>161.1</ele>
        <time>2024-06-19T09:30:48+02:00</time>
      </trkpt>
      <trkpt lat="44.21016" lon="0.90505">
        <ele>161.5</ele>
        <time>2024-06-19T09:30:57+02:00</time>
      </trkpt>
      <trkpt lat="44.21011" lon="0.90518">
        <ele>162</ele>
        <time>2024-06-19T09:31:07+02:00</time>
      </trkpt>
      <trkpt lat="44.21008" lon="0.90533">
        <ele>162.5</ele>
        <time>2024-06-19T09:31:16+02:00</time>
      </trkpt>
      <trkpt lat="44.21002" lon="0.90545">
        <ele>162.9</ele>
        <time>2024-06-19T09:31:25+02:00</time>
      </trkpt>
      <trkpt lat="44.20995" lon="0.90558">
        <ele>163.4</ele>
        <time>2024-06-19T09:31:35+02:00</time>
      </trkpt>
      <trkpt lat="44.20986" lon="0.9057">
        <ele>164.2</ele>
        <time>2024-06-19T09:31:48+02:00</time>
      </trkpt>
      <trkpt lat="44.20979" lon="0.9058">
        <ele>164.7</ele>
        <time>2024-06-19T09:31:58+02:00</time>
      </trkpt>
      <trkpt lat="44.20973" lon="0.90594">
        <ele>165.4</ele>
        <time>2024-06-19T09:32:07+02:00</time>
      </trkpt>
      <trkpt lat="44.20967" lon="0.90608">
        <ele>166.3</ele>
        <time>2024-06-19T09:32:16+02:00</time>
      </trkpt>
      <trkpt lat="44.20963" lon="0.90621">
        <ele>166.7</ele>
        <time>2024-06-19T09:32:26+02:00</time>
      </trkpt>
      <trkpt lat="44.20958" lon="0.90633">
        <ele>167.1</ele>
        <time>2024-06-19T09:32:35+02:00</time>
      </trkpt>
      <trkpt lat="44.20951" lon="0.90647">
        <ele>167.6</ele>
        <time>2024-06-19T09:32:45+02:00</time>
      </trkpt>
      <trkpt lat="44.20943" lon="0.90659">
        <ele>168.1</ele>
        <time>2024-06-19T09:32:54+02:00</time>
      </trkpt>
      <trkpt lat="44.20936" lon="0.90671">
        <ele>168.6</ele>
        <time>2024-06-19T09:33:03+02:00</time>
      </trkpt>
      <trkpt lat="44.20929" lon="0.90682">
        <ele>169.1</ele>
        <time>2024-06-19T09:33:13+02:00</time>
      </trkpt>
      <trkpt lat="44.20922" lon="0.90693">
        <ele>169.6</ele>
        <time>2024-06-19T09:33:22+02:00</time>
      </trkpt>
      <trkpt lat="44.20915" lon="0.90706">
        <ele>170.2</ele>
        <time>2024-06-19T09:33:31+02:00</time>
      </trkpt>
      <trkpt lat="44.20909" lon="0.90718">
        <ele>170.8</ele>
        <time>2024-06-19T09:33:40+02:00</time>
      </trkpt>
      <trkpt lat="44.20902" lon="0.90729">
        <ele>171.5</ele>
        <time>2024-06-19T09:33:50+02:00</time>
      </trkpt>
      <trkpt lat="44.20895" lon="0.90742">
        <ele>171.8</ele>
        <time>2024-06-19T09:33:59+02:00</time>
      </trkpt>
      <trkpt lat="44.20888" lon="0.90753">
        <ele>172.1</ele>
        <time>2024-06-19T09:34:08+02:00</time>
      </trkpt>
      <trkpt lat="44.20881" lon="0.90765">
        <ele>172.6</ele>
        <time>2024-06-19T09:34:18+02:00</time>
      </trkpt>
      <trkpt lat="44.20875" lon="0.90778">
        <ele>173</ele>
        <time>2024-06-19T09:34:27+02:00</time>
      </trkpt>
      <trkpt lat="44.20868" lon="0.90791">
        <ele>173.5</ele>
        <time>2024-06-19T09:34:37+02:00</time>
      </trkpt>
      <trkpt lat="44.20869" lon="0.90805">
        <ele>173.5</ele>
        <time>2024-06-19T09:34:47+02:00</time>
      </trkpt>
      <trkpt lat="44.20876" lon="0.90812">
        <ele>172.9</ele>
        <time>2024-06-19T09:34:57+02:00</time>
      </trkpt>
      <trkpt lat="44.20885" lon="0.90819">
        <ele>172.7</ele>
        <time>2024-06-19T09:35:06+02:00</time>
      </trkpt>
      <trkpt lat="44.20895" lon="0.90832">
        <ele>172.7</ele>
        <time>2024-06-19T09:35:20+02:00</time>
      </trkpt>
      <trkpt lat="44.20906" lon="0.90839">
        <ele>172.5</ele>
        <time>2024-06-19T09:35:30+02:00</time>
      </trkpt>
      <trkpt lat="44.20917" lon="0.9085">
        <ele>172.6</ele>
        <time>2024-06-19T09:35:44+02:00</time>
      </trkpt>
      <trkpt lat="44.20926" lon="0.9086">
        <ele>172.6</ele>
        <time>2024-06-19T09:35:54+02:00</time>
      </trkpt>
      <trkpt lat="44.20935" lon="0.90871">
        <ele>172.6</ele>
        <time>2024-06-19T09:36:03+02:00</time>
      </trkpt>
      <trkpt lat="44.2094" lon="0.90885">
        <ele>172.9</ele>
        <time>2024-06-19T09:36:13+02:00</time>
      </trkpt>
      <trkpt lat="44.20943" lon="0.909">
        <ele>172.6</ele>
        <time>2024-06-19T09:36:22+02:00</time>
      </trkpt>
      <trkpt lat="44.20945" lon="0.90913">
        <ele>172.1</ele>
        <time>2024-06-19T09:36:32+02:00</time>
      </trkpt>
      <trkpt lat="44.20946" lon="0.90927">
        <ele>172</ele>
        <time>2024-06-19T09:36:41+02:00</time>
      </trkpt>
      <trkpt lat="44.20942" lon="0.90941">
        <ele>172</ele>
        <time>2024-06-19T09:36:50+02:00</time>
      </trkpt>
      <trkpt lat="44.20938" lon="0.90953">
        <ele>171.6</ele>
        <time>2024-06-19T09:36:59+02:00</time>
      </trkpt>
      <trkpt lat="44.20931" lon="0.90968">
        <ele>170.8</ele>
        <time>2024-06-19T09:37:09+02:00</time>
      </trkpt>
      <trkpt lat="44.20927" lon="0.90981">
        <ele>169.8</ele>
        <time>2024-06-19T09:37:19+02:00</time>
      </trkpt>
      <trkpt lat="44.20926" lon="0.90994">
        <ele>168.8</ele>
        <time>2024-06-19T09:37:28+02:00</time>
      </trkpt>
      <trkpt lat="44.20929" lon="0.91012">
        <ele>167.4</ele>
        <time>2024-06-19T09:37:43+02:00</time>
      </trkpt>
      <trkpt lat="44.20938" lon="0.91022">
        <ele>166.6</ele>
        <time>2024-06-19T09:37:53+02:00</time>
      </trkpt>
      <trkpt lat="44.20948" lon="0.91035">
        <ele>164.7</ele>
        <time>2024-06-19T09:38:08+02:00</time>
      </trkpt>
      <trkpt lat="44.20958" lon="0.91039">
        <ele>164.5</ele>
        <time>2024-06-19T09:38:18+02:00</time>
      </trkpt>
      <trkpt lat="44.20971" lon="0.91045">
        <ele>164.4</ele>
        <time>2024-06-19T09:38:27+02:00</time>
      </trkpt>
      <trkpt lat="44.2098" lon="0.91051">
        <ele>164.2</ele>
        <time>2024-06-19T09:38:37+02:00</time>
      </trkpt>
      <trkpt lat="44.2099" lon="0.91063">
        <ele>163.2</ele>
        <time>2024-06-19T09:38:46+02:00</time>
      </trkpt>
      <trkpt lat="44.20998" lon="0.91075">
        <ele>163.6</ele>
        <time>2024-06-19T09:38:56+02:00</time>
      </trkpt>
      <trkpt lat="44.21003" lon="0.91088">
        <ele>163.3</ele>
        <time>2024-06-19T09:39:06+02:00</time>
      </trkpt>
      <trkpt lat="44.21009" lon="0.91104">
        <ele>161.5</ele>
        <time>2024-06-19T09:39:16+02:00</time>
      </trkpt>
      <trkpt lat="44.21014" lon="0.91118">
        <ele>160.8</ele>
        <time>2024-06-19T09:39:25+02:00</time>
      </trkpt>
      <trkpt lat="44.2102" lon="0.91133">
        <ele>161.3</ele>
        <time>2024-06-19T09:39:39+02:00</time>
      </trkpt>
      <trkpt lat="44.21023" lon="0.91148">
        <ele>161.3</ele>
        <time>2024-06-19T09:39:48+02:00</time>
      </trkpt>
      <trkpt lat="44.21026" lon="0.91162">
        <ele>161.5</ele>
        <time>2024-06-19T09:39:57+02:00</time>
      </trkpt>
      <trkpt lat="44.21031" lon="0.91175">
        <ele>160</ele>
        <time>2024-06-19T09:40:07+02:00</time>
      </trkpt>
      <trkpt lat="44.21043" lon="0.91173">
        <ele>158.2</ele>
        <time>2024-06-19T09:40:21+02:00</time>
      </trkpt>
      <trkpt lat="44.21052" lon="0.91168">
        <ele>157.4</ele>
        <time>2024-06-19T09:40:35+02:00</time>
      </trkpt>
      <trkpt lat="44.21065" lon="0.91157">
        <ele>157.4</ele>
        <time>2024-06-19T09:40:48+02:00</time>
      </trkpt>
      <trkpt lat="44.21075" lon="0.9115">
        <ele>156.7</ele>
        <time>2024-06-19T09:40:57+02:00</time>
      </trkpt>
      <trkpt lat="44.21085" lon="0.91143">
        <ele>155.7</ele>
        <time>2024-06-19T09:41:07+02:00</time>
      </trkpt>
      <trkpt lat="44.211" lon="0.91141">
        <ele>152</ele>
        <time>2024-06-19T09:41:21+02:00</time>
      </trkpt>
      <trkpt lat="44.21114" lon="0.91137">
        <ele>149.3</ele>
        <time>2024-06-19T09:41:40+02:00</time>
      </trkpt>
      <trkpt lat="44.21126" lon="0.91131">
        <ele>149.6</ele>
        <time>2024-06-19T09:41:54+02:00</time>
      </trkpt>
      <trkpt lat="44.21136" lon="0.9113">
        <ele>147.7</ele>
        <time>2024-06-19T09:42:03+02:00</time>
      </trkpt>
      <trkpt lat="44.21148" lon="0.9113">
        <ele>146.5</ele>
        <time>2024-06-19T09:42:12+02:00</time>
      </trkpt>
      <trkpt lat="44.21163" lon="0.91131">
        <ele>144.6</ele>
        <time>2024-06-19T09:42:26+02:00</time>
      </trkpt>
      <trkpt lat="44.21175" lon="0.91132">
        <ele>143.4</ele>
        <time>2024-06-19T09:42:36+02:00</time>
      </trkpt>
      <trkpt lat="44.21185" lon="0.91133">
        <ele>142.5</ele>
        <time>2024-06-19T09:42:46+02:00</time>
      </trkpt>
      <trkpt lat="44.21199" lon="0.91139">
        <ele>140.4</ele>
        <time>2024-06-19T09:42:59+02:00</time>
      </trkpt>
      <trkpt lat="44.21208" lon="0.91142">
        <ele>140.3</ele>
        <time>2024-06-19T09:43:09+02:00</time>
      </trkpt>
      <trkpt lat="44.21217" lon="0.91151">
        <ele>139.4</ele>
        <time>2024-06-19T09:43:18+02:00</time>
      </trkpt>
      <trkpt lat="44.21224" lon="0.91163">
        <ele>138</ele>
        <time>2024-06-19T09:43:28+02:00</time>
      </trkpt>
      <trkpt lat="44.21223" lon="0.91179">
        <ele>135.2</ele>
        <time>2024-06-19T09:43:37+02:00</time>
      </trkpt>
      <trkpt lat="44.21216" lon="0.91191">
        <ele>133.2</ele>
        <time>2024-06-19T09:43:47+02:00</time>
      </trkpt>
      <trkpt lat="44.21209" lon="0.91201">
        <ele>132</ele>
        <time>2024-06-19T09:43:56+02:00</time>
      </trkpt>
      <trkpt lat="44.21201" lon="0.9121">
        <ele>130.8</ele>
        <time>2024-06-19T09:44:06+02:00</time>
      </trkpt>
      <trkpt lat="44.21193" lon="0.91218">
        <ele>129.4</ele>
        <time>2024-06-19T09:44:15+02:00</time>
      </trkpt>
      <trkpt lat="44.21185" lon="0.91228">
        <ele>128.4</ele>
        <time>2024-06-19T09:44:25+02:00</time>
      </trkpt>
      <trkpt lat="44.21179" lon="0.91242">
        <ele>127.4</ele>
        <time>2024-06-19T09:44:35+02:00</time>
      </trkpt>
      <trkpt lat="44.21171" lon="0.91253">
        <ele>126.3</ele>
        <time>2024-06-19T09:44:44+02:00</time>
      </trkpt>
      <trkpt lat="44.21163" lon="0.91262">
        <ele>125.5</ele>
        <time>2024-06-19T09:44:53+02:00</time>
      </trkpt>
      <trkpt lat="44.21156" lon="0.91272">
        <ele>124.9</ele>
        <time>2024-06-19T09:45:03+02:00</time>
      </trkpt>
      <trkpt lat="44.21149" lon="0.91282">
        <ele>124.1</ele>
        <time>2024-06-19T09:45:12+02:00</time>
      </trkpt>
      <trkpt lat="44.21143" lon="0.91295">
        <ele>122.6</ele>
        <time>2024-06-19T09:45:22+02:00</time>
      </trkpt>
      <trkpt lat="44.21139" lon="0.91307">
        <ele>121</ele>
        <time>2024-06-19T09:45:31+02:00</time>
      </trkpt>
      <trkpt lat="44.21134" lon="0.9132">
        <ele>120.7</ele>
        <time>2024-06-19T09:45:40+02:00</time>
      </trkpt>
      <trkpt lat="44.2113" lon="0.91334">
        <ele>120.3</ele>
        <time>2024-06-19T09:45:50+02:00</time>
      </trkpt>
      <trkpt lat="44.21125" lon="0.91348">
        <ele>120</ele>
        <time>2024-06-19T09:45:59+02:00</time>
      </trkpt>
      <trkpt lat="44.2112" lon="0.91363">
        <ele>119.3</ele>
        <time>2024-06-19T09:46:09+02:00</time>
      </trkpt>
      <trkpt lat="44.21115" lon="0.91376">
        <ele>118.6</ele>
        <time>2024-06-19T09:46:18+02:00</time>
      </trkpt>
      <trkpt lat="44.2111" lon="0.91389">
        <ele>118.1</ele>
        <time>2024-06-19T09:46:28+02:00</time>
      </trkpt>
      <trkpt lat="44.21107" lon="0.91403">
        <ele>117.7</ele>
        <time>2024-06-19T09:46:37+02:00</time>
      </trkpt>
      <trkpt lat="44.21102" lon="0.91418">
        <ele>116.9</ele>
        <time>2024-06-19T09:46:47+02:00</time>
      </trkpt>
      <trkpt lat="44.21097" lon="0.91432">
        <ele>116.2</ele>
        <time>2024-06-19T09:46:57+02:00</time>
      </trkpt>
      <trkpt lat="44.2109" lon="0.91444">
        <ele>115.3</ele>
        <time>2024-06-19T09:47:06+02:00</time>
      </trkpt>
      <trkpt lat="44.21086" lon="0.91458">
        <ele>113.7</ele>
        <time>2024-06-19T09:47:16+02:00</time>
      </trkpt>
      <trkpt lat="44.21078" lon="0.9147">
        <ele>112.2</ele>
        <time>2024-06-19T09:47:25+02:00</time>
      </trkpt>
      <trkpt lat="44.21072" lon="0.91485">
        <ele>111.4</ele>
        <time>2024-06-19T09:47:35+02:00</time>
      </trkpt>
      <trkpt lat="44.21067" lon="0.91496">
        <ele>110.6</ele>
        <time>2024-06-19T09:47:44+02:00</time>
      </trkpt>
      <trkpt lat="44.21061" lon="0.9151">
        <ele>109.8</ele>
        <time>2024-06-19T09:47:54+02:00</time>
      </trkpt>
      <trkpt lat="44.21055" lon="0.91521">
        <ele>109.2</ele>
        <time>2024-06-19T09:48:03+02:00</time>
      </trkpt>
      <trkpt lat="44.21048" lon="0.91533">
        <ele>108.6</ele>
        <time>2024-06-19T09:48:13+02:00</time>
      </trkpt>
      <trkpt lat="44.2104" lon="0.91542">
        <ele>108.2</ele>
        <time>2024-06-19T09:48:22+02:00</time>
      </trkpt>
      <trkpt lat="44.21028" lon="0.91548">
        <ele>108</ele>
        <time>2024-06-19T09:48:36+02:00</time>
      </trkpt>
      <trkpt lat="44.21026" lon="0.91534">
        <ele>108</ele>
        <time>2024-06-19T09:49:11+02:00</time>
      </trkpt>
      <trkpt lat="44.21015" lon="0.91533">
        <ele>108</ele>
        <time>2024-06-19T09:49:26+02:00</time>
      </trkpt>
      <trkpt lat="44.21007" lon="0.91524">
        <ele>108</ele>
        <time>2024-06-19T09:49:35+02:00</time>
      </trkpt>
      <trkpt lat="44.21" lon="0.91514">
        <ele>108</ele>
        <time>2024-06-19T09:49:45+02:00</time>
      </trkpt>
      <trkpt lat="44.20993" lon="0.91504">
        <ele>107.7</ele>
        <time>2024-06-19T09:49:55+02:00</time>
      </trkpt>
      <trkpt lat="44.20984" lon="0.91495">
        <ele>107.6</ele>
        <time>2024-06-19T09:50:05+02:00</time>
      </trkpt>
      <trkpt lat="44.20977" lon="0.91485">
        <ele>107.7</ele>
        <time>2024-06-19T09:50:15+02:00</time>
      </trkpt>
      <trkpt lat="44.20969" lon="0.91479">
        <ele>107.7</ele>
        <time>2024-06-19T09:50:24+02:00</time>
      </trkpt>
      <trkpt lat="44.20962" lon="0.91465">
        <ele>108</ele>
        <time>2024-06-19T09:50:39+02:00</time>
      </trkpt>
      <trkpt lat="44.20955" lon="0.91456">
        <ele>107.8</ele>
        <time>2024-06-19T09:50:48+02:00</time>
      </trkpt>
      <trkpt lat="44.20944" lon="0.91454">
        <ele>107</ele>
        <time>2024-06-19T09:50:58+02:00</time>
      </trkpt>
      <trkpt lat="44.20934" lon="0.91447">
        <ele>107</ele>
        <time>2024-06-19T09:51:08+02:00</time>
      </trkpt>
      <trkpt lat="44.20925" lon="0.91442">
        <ele>107.2</ele>
        <time>2024-06-19T09:51:18+02:00</time>
      </trkpt>
      <trkpt lat="44.20915" lon="0.91431">
        <ele>107.5</ele>
        <time>2024-06-19T09:51:32+02:00</time>
      </trkpt>
      <trkpt lat="44.20908" lon="0.91422">
        <ele>107.6</ele>
        <time>2024-06-19T09:51:42+02:00</time>
      </trkpt>
      <trkpt lat="44.209" lon="0.91411">
        <ele>107.9</ele>
        <time>2024-06-19T09:52:01+02:00</time>
      </trkpt>
      <trkpt lat="44.20901" lon="0.91396">
        <ele>109.5</ele>
        <time>2024-06-19T09:52:15+02:00</time>
      </trkpt>
      <trkpt lat="44.20898" lon="0.91383">
        <ele>110.3</ele>
        <time>2024-06-19T09:52:30+02:00</time>
      </trkpt>
      <trkpt lat="44.20903" lon="0.91398">
        <ele>109.6</ele>
        <time>2024-06-19T09:52:45+02:00</time>
      </trkpt>
      <trkpt lat="44.20904" lon="0.91411">
        <ele>108.2</ele>
        <time>2024-06-19T09:53:14+02:00</time>
      </trkpt>
      <trkpt lat="44.20894" lon="0.91408">
        <ele>107.7</ele>
        <time>2024-06-19T09:53:39+02:00</time>
      </trkpt>
      <trkpt lat="44.20891" lon="0.91396">
        <ele>108</ele>
        <time>2024-06-19T09:53:59+02:00</time>
      </trkpt>
      <trkpt lat="44.20879" lon="0.91395">
        <ele>107.8</ele>
        <time>2024-06-19T09:54:14+02:00</time>
      </trkpt>
      <trkpt lat="44.20869" lon="0.91394">
        <ele>107.8</ele>
        <time>2024-06-19T09:54:24+02:00</time>
      </trkpt>
      <trkpt lat="44.2086" lon="0.91392">
        <ele>107.9</ele>
        <time>2024-06-19T09:54:34+02:00</time>
      </trkpt>
      <trkpt lat="44.20852" lon="0.91384">
        <ele>108.6</ele>
        <time>2024-06-19T09:55:34+02:00</time>
      </trkpt>
      <trkpt lat="44.20841" lon="0.91385">
        <ele>108.7</ele>
        <time>2024-06-19T09:55:44+02:00</time>
      </trkpt>
      <trkpt lat="44.20828" lon="0.91386">
        <ele>108.5</ele>
        <time>2024-06-19T09:55:53+02:00</time>
      </trkpt>
      <trkpt lat="44.20816" lon="0.91387">
        <ele>107.7</ele>
        <time>2024-06-19T09:56:02+02:00</time>
      </trkpt>
      <trkpt lat="44.20804" lon="0.91384">
        <ele>107.8</ele>
        <time>2024-06-19T10:00:02+02:00</time>
      </trkpt>
      <trkpt lat="44.20793" lon="0.91384">
        <ele>107.8</ele>
        <time>2024-06-19T10:00:11+02:00</time>
      </trkpt>
      <trkpt lat="44.20781" lon="0.91382">
        <ele>107.8</ele>
        <time>2024-06-19T10:00:21+02:00</time>
      </trkpt>
      <trkpt lat="44.20771" lon="0.91385">
        <ele>107.4</ele>
        <time>2024-06-19T10:00:30+02:00</time>
      </trkpt>
      <trkpt lat="44.2076" lon="0.91383">
        <ele>107.6</ele>
        <time>2024-06-19T10:00:40+02:00</time>
      </trkpt>
      <trkpt lat="44.2075" lon="0.91382">
        <ele>107.7</ele>
        <time>2024-06-19T10:00:49+02:00</time>
      </trkpt>
      <trkpt lat="44.20738" lon="0.9138">
        <ele>107.7</ele>
        <time>2024-06-19T10:00:59+02:00</time>
      </trkpt>
      <trkpt lat="44.20729" lon="0.91374">
        <ele>107.8</ele>
        <time>2024-06-19T10:01:08+02:00</time>
      </trkpt>
      <trkpt lat="44.20721" lon="0.91367">
        <ele>107.8</ele>
        <time>2024-06-19T10:01:17+02:00</time>
      </trkpt>
      <trkpt lat="44.20711" lon="0.91356">
        <ele>107.9</ele>
        <time>2024-06-19T10:01:27+02:00</time>
      </trkpt>
      <trkpt lat="44.20704" lon="0.91344">
        <ele>108.1</ele>
        <time>2024-06-19T10:01:37+02:00</time>
      </trkpt>
      <trkpt lat="44.20696" lon="0.91334">
        <ele>108.1</ele>
        <time>2024-06-19T10:01:46+02:00</time>
      </trkpt>
      <trkpt lat="44.20683" lon="0.91325">
        <ele>107.9</ele>
        <time>2024-06-19T10:02:01+02:00</time>
      </trkpt>
      <trkpt lat="44.20674" lon="0.91315">
        <ele>107.9</ele>
        <time>2024-06-19T10:02:10+02:00</time>
      </trkpt>
      <trkpt lat="44.20668" lon="0.91301">
        <ele>108.4</ele>
        <time>2024-06-19T10:02:19+02:00</time>
      </trkpt>
      <trkpt lat="44.20663" lon="0.91291">
        <ele>108.8</ele>
        <time>2024-06-19T10:02:29+02:00</time>
      </trkpt>
      <trkpt lat="44.2065" lon="0.91284">
        <ele>108.5</ele>
        <time>2024-06-19T10:02:53+02:00</time>
      </trkpt>
      <trkpt lat="44.2064" lon="0.91284">
        <ele>107.9</ele>
        <time>2024-06-19T10:03:03+02:00</time>
      </trkpt>
      <trkpt lat="44.20633" lon="0.91274">
        <ele>108</ele>
        <time>2024-06-19T10:03:12+02:00</time>
      </trkpt>
      <trkpt lat="44.20626" lon="0.91263">
        <ele>108.1</ele>
        <time>2024-06-19T10:03:22+02:00</time>
      </trkpt>
      <trkpt lat="44.20621" lon="0.91252">
        <ele>108</ele>
        <time>2024-06-19T10:03:32+02:00</time>
      </trkpt>
      <trkpt lat="44.2062" lon="0.91239">
        <ele>108.4</ele>
        <time>2024-06-19T10:03:41+02:00</time>
      </trkpt>
      <trkpt lat="44.20609" lon="0.91226">
        <ele>107.8</ele>
        <time>2024-06-19T10:03:56+02:00</time>
      </trkpt>
      <trkpt lat="44.20603" lon="0.91212">
        <ele>108</ele>
        <time>2024-06-19T10:04:05+02:00</time>
      </trkpt>
      <trkpt lat="44.20601" lon="0.91199">
        <ele>108.2</ele>
        <time>2024-06-19T10:04:15+02:00</time>
      </trkpt>
      <trkpt lat="44.206" lon="0.91187">
        <ele>108.6</ele>
        <time>2024-06-19T10:04:24+02:00</time>
      </trkpt>
      <trkpt lat="44.20593" lon="0.91172">
        <ele>108.3</ele>
        <time>2024-06-19T10:04:39+02:00</time>
      </trkpt>
      <trkpt lat="44.20589" lon="0.91158">
        <ele>108.3</ele>
        <time>2024-06-19T10:04:54+02:00</time>
      </trkpt>
      <trkpt lat="44.20583" lon="0.9114">
        <ele>107.9</ele>
        <time>2024-06-19T10:05:08+02:00</time>
      </trkpt>
      <trkpt lat="44.20575" lon="0.91127">
        <ele>108.8</ele>
        <time>2024-06-19T10:05:18+02:00</time>
      </trkpt>
      <trkpt lat="44.20565" lon="0.91113">
        <ele>108.6</ele>
        <time>2024-06-19T10:05:32+02:00</time>
      </trkpt>
      <trkpt lat="44.20558" lon="0.91098">
        <ele>108.3</ele>
        <time>2024-06-19T10:05:42+02:00</time>
      </trkpt>
      <trkpt lat="44.20551" lon="0.91086">
        <ele>108.5</ele>
        <time>2024-06-19T10:05:51+02:00</time>
      </trkpt>
      <trkpt lat="44.20546" lon="0.91076">
        <ele>108.4</ele>
        <time>2024-06-19T10:06:01+02:00</time>
      </trkpt>
      <trkpt lat="44.20546" lon="0.91059">
        <ele>108.9</ele>
        <time>2024-06-19T10:06:21+02:00</time>
      </trkpt>
      <trkpt lat="44.20549" lon="0.91043">
        <ele>109.3</ele>
        <time>2024-06-19T10:06:36+02:00</time>
      </trkpt>
      <trkpt lat="44.20553" lon="0.91029">
        <ele>109.7</ele>
        <time>2024-06-19T10:07:21+02:00</time>
      </trkpt>
      <trkpt lat="44.20554" lon="0.91016">
        <ele>110.3</ele>
        <time>2024-06-19T10:07:51+02:00</time>
      </trkpt>
      <trkpt lat="44.20555" lon="0.91003">
        <ele>110.9</ele>
        <time>2024-06-19T10:08:31+02:00</time>
      </trkpt>
      <trkpt lat="44.20544" lon="0.91001">
        <ele>110.1</ele>
        <time>2024-06-19T10:08:56+02:00</time>
      </trkpt>
      <trkpt lat="44.20534" lon="0.91002">
        <ele>109.3</ele>
        <time>2024-06-19T10:09:11+02:00</time>
      </trkpt>
      <trkpt lat="44.20526" lon="0.90997">
        <ele>109.2</ele>
        <time>2024-06-19T10:09:46+02:00</time>
      </trkpt>
      <trkpt lat="44.20515" lon="0.90991">
        <ele>109</ele>
        <time>2024-06-19T10:10:01+02:00</time>
      </trkpt>
      <trkpt lat="44.20504" lon="0.90987">
        <ele>108.7</ele>
        <time>2024-06-19T10:10:10+02:00</time>
      </trkpt>
      <trkpt lat="44.20493" lon="0.90978">
        <ele>108.7</ele>
        <time>2024-06-19T10:10:25+02:00</time>
      </trkpt>
      <trkpt lat="44.20485" lon="0.90972">
        <ele>108.4</ele>
        <time>2024-06-19T10:10:54+02:00</time>
      </trkpt>
      <trkpt lat="44.20477" lon="0.90965">
        <ele>108.6</ele>
        <time>2024-06-19T10:11:04+02:00</time>
      </trkpt>
      <trkpt lat="44.20468" lon="0.90958">
        <ele>108.8</ele>
        <time>2024-06-19T10:11:14+02:00</time>
      </trkpt>
      <trkpt lat="44.2046" lon="0.90952">
        <ele>109</ele>
        <time>2024-06-19T10:11:39+02:00</time>
      </trkpt>
      <trkpt lat="44.20451" lon="0.90943">
        <ele>108.9</ele>
        <time>2024-06-19T10:11:48+02:00</time>
      </trkpt>
      <trkpt lat="44.20442" lon="0.90939">
        <ele>109.3</ele>
        <time>2024-06-19T10:11:57+02:00</time>
      </trkpt>
      <trkpt lat="44.20431" lon="0.90937">
        <ele>109.3</ele>
        <time>2024-06-19T10:12:17+02:00</time>
      </trkpt>
      <trkpt lat="44.20421" lon="0.9094">
        <ele>108.2</ele>
        <time>2024-06-19T10:12:46+02:00</time>
      </trkpt>
      <trkpt lat="44.2041" lon="0.90935">
        <ele>108.7</ele>
        <time>2024-06-19T10:12:55+02:00</time>
      </trkpt>
      <trkpt lat="44.20401" lon="0.9093">
        <ele>109</ele>
        <time>2024-06-19T10:13:04+02:00</time>
      </trkpt>
      <trkpt lat="44.20393" lon="0.90922">
        <ele>109.1</ele>
        <time>2024-06-19T10:13:14+02:00</time>
      </trkpt>
      <trkpt lat="44.20384" lon="0.90916">
        <ele>108.7</ele>
        <time>2024-06-19T10:13:23+02:00</time>
      </trkpt>
      <trkpt lat="44.20374" lon="0.90917">
        <ele>107.9</ele>
        <time>2024-06-19T10:13:33+02:00</time>
      </trkpt>
      <trkpt lat="44.20364" lon="0.90903">
        <ele>108.9</ele>
        <time>2024-06-19T10:15:57+02:00</time>
      </trkpt>
      <trkpt lat="44.20353" lon="0.90899">
        <ele>107.2</ele>
        <time>2024-06-19T10:16:16+02:00</time>
      </trkpt>
      <trkpt lat="44.20344" lon="0.90896">
        <ele>105.5</ele>
        <time>2024-06-19T10:16:26+02:00</time>
      </trkpt>
      <trkpt lat="44.20332" lon="0.90895">
        <ele>103.1</ele>
        <time>2024-06-19T10:16:35+02:00</time>
      </trkpt>
      <trkpt lat="44.20322" lon="0.90894">
        <ele>102</ele>
        <time>2024-06-19T10:16:44+02:00</time>
      </trkpt>
      <trkpt lat="44.20316" lon="0.90882">
        <ele>102.3</ele>
        <time>2024-06-19T10:16:59+02:00</time>
      </trkpt>
      <trkpt lat="44.20307" lon="0.90875">
        <ele>101.7</ele>
        <time>2024-06-19T10:17:14+02:00</time>
      </trkpt>
      <trkpt lat="44.20298" lon="0.90858">
        <ele>102.9</ele>
        <time>2024-06-19T10:17:24+02:00</time>
      </trkpt>
      <trkpt lat="44.20292" lon="0.90845">
        <ele>104</ele>
        <time>2024-06-19T10:17:34+02:00</time>
      </trkpt>
      <trkpt lat="44.20285" lon="0.90834">
        <ele>104.7</ele>
        <time>2024-06-19T10:17:44+02:00</time>
      </trkpt>
      <trkpt lat="44.20274" lon="0.90828">
        <ele>104.2</ele>
        <time>2024-06-19T10:17:53+02:00</time>
      </trkpt>
      <trkpt lat="44.20264" lon="0.90822">
        <ele>104.1</ele>
        <time>2024-06-19T10:18:03+02:00</time>
      </trkpt>
      <trkpt lat="44.20254" lon="0.90819">
        <ele>103.7</ele>
        <time>2024-06-19T10:18:12+02:00</time>
      </trkpt>
      <trkpt lat="44.20243" lon="0.90813">
        <ele>104.7</ele>
        <time>2024-06-19T10:18:22+02:00</time>
      </trkpt>
      <trkpt lat="44.20234" lon="0.90806">
        <ele>106</ele>
        <time>2024-06-19T10:18:32+02:00</time>
      </trkpt>
      <trkpt lat="44.20226" lon="0.908">
        <ele>107.3</ele>
        <time>2024-06-19T10:19:01+02:00</time>
      </trkpt>
      <trkpt lat="44.20217" lon="0.90794">
        <ele>107.8</ele>
        <time>2024-06-19T10:19:11+02:00</time>
      </trkpt>
      <trkpt lat="44.20205" lon="0.90786">
        <ele>107.9</ele>
        <time>2024-06-19T10:19:25+02:00</time>
      </trkpt>
      <trkpt lat="44.20197" lon="0.90773">
        <ele>108.8</ele>
        <time>2024-06-19T10:19:35+02:00</time>
      </trkpt>
      <trkpt lat="44.20189" lon="0.90766">
        <ele>108.3</ele>
        <time>2024-06-19T10:19:44+02:00</time>
      </trkpt>
      <trkpt lat="44.2018" lon="0.90759">
        <ele>107.3</ele>
        <time>2024-06-19T10:19:54+02:00</time>
      </trkpt>
      <trkpt lat="44.20168" lon="0.90752">
        <ele>105.1</ele>
        <time>2024-06-19T10:20:24+02:00</time>
      </trkpt>
      <trkpt lat="44.20159" lon="0.90744">
        <ele>104.3</ele>
        <time>2024-06-19T10:20:33+02:00</time>
      </trkpt>
      <trkpt lat="44.20146" lon="0.90742">
        <ele>102.6</ele>
        <time>2024-06-19T10:20:47+02:00</time>
      </trkpt>
      <trkpt lat="44.20136" lon="0.90746">
        <ele>101</ele>
        <time>2024-06-19T10:20:57+02:00</time>
      </trkpt>
      <trkpt lat="44.20124" lon="0.90754">
        <ele>99.8</ele>
        <time>2024-06-19T10:21:11+02:00</time>
      </trkpt>
      <trkpt lat="44.20113" lon="0.90758">
        <ele>98.9</ele>
        <time>2024-06-19T10:21:20+02:00</time>
      </trkpt>
      <trkpt lat="44.20103" lon="0.90763">
        <ele>98.1</ele>
        <time>2024-06-19T10:21:29+02:00</time>
      </trkpt>
      <trkpt lat="44.20091" lon="0.90765">
        <ele>97.3</ele>
        <time>2024-06-19T10:21:39+02:00</time>
      </trkpt>
      <trkpt lat="44.20083" lon="0.90758">
        <ele>97.9</ele>
        <time>2024-06-19T10:21:49+02:00</time>
      </trkpt>
      <trkpt lat="44.20076" lon="0.90747">
        <ele>97.8</ele>
        <time>2024-06-19T10:21:58+02:00</time>
      </trkpt>
      <trkpt lat="44.20069" lon="0.90734">
        <ele>96.9</ele>
        <time>2024-06-19T10:22:08+02:00</time>
      </trkpt>
      <trkpt lat="44.20063" lon="0.9072">
        <ele>96.4</ele>
        <time>2024-06-19T10:22:18+02:00</time>
      </trkpt>
      <trkpt lat="44.2006" lon="0.90707">
        <ele>96.2</ele>
        <time>2024-06-19T10:22:28+02:00</time>
      </trkpt>
      <trkpt lat="44.20055" lon="0.90695">
        <ele>95.9</ele>
        <time>2024-06-19T10:22:37+02:00</time>
      </trkpt>
      <trkpt lat="44.20048" lon="0.90682">
        <ele>96.8</ele>
        <time>2024-06-19T10:22:51+02:00</time>
      </trkpt>
      <trkpt lat="44.20041" lon="0.90673">
        <ele>96.7</ele>
        <time>2024-06-19T10:23:01+02:00</time>
      </trkpt>
      <trkpt lat="44.20033" lon="0.90663">
        <ele>96.3</ele>
        <time>2024-06-19T10:23:11+02:00</time>
      </trkpt>
      <trkpt lat="44.20028" lon="0.90651">
        <ele>96.7</ele>
        <time>2024-06-19T10:23:21+02:00</time>
      </trkpt>
      <trkpt lat="44.20016" lon="0.90641">
        <ele>95.8</ele>
        <time>2024-06-19T10:23:35+02:00</time>
      </trkpt>
      <trkpt lat="44.2001" lon="0.90631">
        <ele>95.5</ele>
        <time>2024-06-19T10:23:45+02:00</time>
      </trkpt>
      <trkpt lat="44.20004" lon="0.90619">
        <ele>95.3</ele>
        <time>2024-06-19T10:23:55+02:00</time>
      </trkpt>
      <trkpt lat="44.19998" lon="0.9061">
        <ele>95</ele>
        <time>2024-06-19T10:24:04+02:00</time>
      </trkpt>
      <trkpt lat="44.1999" lon="0.906">
        <ele>95.6</ele>
        <time>2024-06-19T10:24:14+02:00</time>
      </trkpt>
      <trkpt lat="44.19983" lon="0.9059">
        <ele>95.9</ele>
        <time>2024-06-19T10:24:23+02:00</time>
      </trkpt>
      <trkpt lat="44.19974" lon="0.90576">
        <ele>96</ele>
        <time>2024-06-19T10:24:37+02:00</time>
      </trkpt>
      <trkpt lat="44.19965" lon="0.90567">
        <ele>96</ele>
        <time>2024-06-19T10:24:47+02:00</time>
      </trkpt>
      <trkpt lat="44.19959" lon="0.90557">
        <ele>96</ele>
        <time>2024-06-19T10:24:56+02:00</time>
      </trkpt>
      <trkpt lat="44.19953" lon="0.90548">
        <ele>95.7</ele>
        <time>2024-06-19T10:25:05+02:00</time>
      </trkpt>
      <trkpt lat="44.19947" lon="0.90532">
        <ele>95.9</ele>
        <time>2024-06-19T10:25:15+02:00</time>
      </trkpt>
      <trkpt lat="44.19941" lon="0.90515">
        <ele>97.2</ele>
        <time>2024-06-19T10:25:29+02:00</time>
      </trkpt>
      <trkpt lat="44.19929" lon="0.90515">
        <ele>96.5</ele>
        <time>2024-06-19T10:25:39+02:00</time>
      </trkpt>
      <trkpt lat="44.19917" lon="0.90514">
        <ele>96</ele>
        <time>2024-06-19T10:25:49+02:00</time>
      </trkpt>
      <trkpt lat="44.19902" lon="0.90509">
        <ele>95</ele>
        <time>2024-06-19T10:26:04+02:00</time>
      </trkpt>
      <trkpt lat="44.19894" lon="0.90501">
        <ele>94.7</ele>
        <time>2024-06-19T10:26:13+02:00</time>
      </trkpt>
      <trkpt lat="44.19887" lon="0.90492">
        <ele>94.9</ele>
        <time>2024-06-19T10:26:23+02:00</time>
      </trkpt>
      <trkpt lat="44.19883" lon="0.90476">
        <ele>96.4</ele>
        <time>2024-06-19T10:26:38+02:00</time>
      </trkpt>
      <trkpt lat="44.19877" lon="0.9046">
        <ele>96.5</ele>
        <time>2024-06-19T10:26:52+02:00</time>
      </trkpt>
      <trkpt lat="44.19873" lon="0.90441">
        <ele>96.9</ele>
        <time>2024-06-19T10:27:17+02:00</time>
      </trkpt>
      <trkpt lat="44.19867" lon="0.90432">
        <ele>96.5</ele>
        <time>2024-06-19T10:27:27+02:00</time>
      </trkpt>
      <trkpt lat="44.19857" lon="0.90431">
        <ele>95.8</ele>
        <time>2024-06-19T10:27:37+02:00</time>
      </trkpt>
      <trkpt lat="44.19843" lon="0.90433">
        <ele>95</ele>
        <time>2024-06-19T10:28:27+02:00</time>
      </trkpt>
      <trkpt lat="44.19833" lon="0.90436">
        <ele>94.2</ele>
        <time>2024-06-19T10:28:37+02:00</time>
      </trkpt>
      <trkpt lat="44.19823" lon="0.90433">
        <ele>94.1</ele>
        <time>2024-06-19T10:28:47+02:00</time>
      </trkpt>
      <trkpt lat="44.19812" lon="0.90433">
        <ele>93.4</ele>
        <time>2024-06-19T10:28:56+02:00</time>
      </trkpt>
      <trkpt lat="44.19802" lon="0.9043">
        <ele>93.4</ele>
        <time>2024-06-19T10:29:05+02:00</time>
      </trkpt>
      <trkpt lat="44.19791" lon="0.90426">
        <ele>93.4</ele>
        <time>2024-06-19T10:29:15+02:00</time>
      </trkpt>
      <trkpt lat="44.19782" lon="0.90422">
        <ele>93.5</ele>
        <time>2024-06-19T10:29:39+02:00</time>
      </trkpt>
      <trkpt lat="44.19771" lon="0.90419">
        <ele>93.4</ele>
        <time>2024-06-19T10:29:50+02:00</time>
      </trkpt>
      <trkpt lat="44.1976" lon="0.90416">
        <ele>93.4</ele>
        <time>2024-06-19T10:29:59+02:00</time>
      </trkpt>
      <trkpt lat="44.1975" lon="0.90416">
        <ele>93.1</ele>
        <time>2024-06-19T10:30:09+02:00</time>
      </trkpt>
      <trkpt lat="44.19739" lon="0.90413">
        <ele>92.7</ele>
        <time>2024-06-19T10:30:18+02:00</time>
      </trkpt>
      <trkpt lat="44.19727" lon="0.90411">
        <ele>92.3</ele>
        <time>2024-06-19T10:30:28+02:00</time>
      </trkpt>
      <trkpt lat="44.19718" lon="0.90407">
        <ele>92.7</ele>
        <time>2024-06-19T10:30:38+02:00</time>
      </trkpt>
      <trkpt lat="44.19708" lon="0.90406">
        <ele>92.7</ele>
        <time>2024-06-19T10:30:48+02:00</time>
      </trkpt>
      <trkpt lat="44.19698" lon="0.9041">
        <ele>91.6</ele>
        <time>2024-06-19T10:30:58+02:00</time>
      </trkpt>
      <trkpt lat="44.19687" lon="0.90413">
        <ele>90.9</ele>
        <time>2024-06-19T10:31:08+02:00</time>
      </trkpt>
      <trkpt lat="44.19677" lon="0.90415">
        <ele>90.8</ele>
        <time>2024-06-19T10:31:23+02:00</time>
      </trkpt>
      <trkpt lat="44.19664" lon="0.90418">
        <ele>91</ele>
        <time>2024-06-19T10:31:37+02:00</time>
      </trkpt>
      <trkpt lat="44.19658" lon="0.90407">
        <ele>92.6</ele>
        <time>2024-06-19T10:32:57+02:00</time>
      </trkpt>
      <trkpt lat="44.1966" lon="0.90391">
        <ele>94.2</ele>
        <time>2024-06-19T10:33:27+02:00</time>
      </trkpt>
      <trkpt lat="44.19662" lon="0.90378">
        <ele>95.1</ele>
        <time>2024-06-19T10:33:37+02:00</time>
      </trkpt>
      <trkpt lat="44.19666" lon="0.90364">
        <ele>95.9</ele>
        <time>2024-06-19T10:33:48+02:00</time>
      </trkpt>
      <trkpt lat="44.1967" lon="0.90352">
        <ele>97.4</ele>
        <time>2024-06-19T10:33:57+02:00</time>
      </trkpt>
      <trkpt lat="44.19675" lon="0.90337">
        <ele>99.5</ele>
        <time>2024-06-19T10:34:07+02:00</time>
      </trkpt>
      <trkpt lat="44.1968" lon="0.90324">
        <ele>99.6</ele>
        <time>2024-06-19T10:34:17+02:00</time>
      </trkpt>
      <trkpt lat="44.19687" lon="0.90312">
        <ele>99.1</ele>
        <time>2024-06-19T10:34:26+02:00</time>
      </trkpt>
      <trkpt lat="44.19694" lon="0.903">
        <ele>98.7</ele>
        <time>2024-06-19T10:34:36+02:00</time>
      </trkpt>
      <trkpt lat="44.197" lon="0.9029">
        <ele>99.4</ele>
        <time>2024-06-19T10:34:45+02:00</time>
      </trkpt>
      <trkpt lat="44.19707" lon="0.90278">
        <ele>100.2</ele>
        <time>2024-06-19T10:34:55+02:00</time>
      </trkpt>
      <trkpt lat="44.19713" lon="0.90264">
        <ele>100.4</ele>
        <time>2024-06-19T10:35:05+02:00</time>
      </trkpt>
      <trkpt lat="44.19721" lon="0.90254">
        <ele>101.1</ele>
        <time>2024-06-19T10:35:15+02:00</time>
      </trkpt>
      <trkpt lat="44.19729" lon="0.90242">
        <ele>100.8</ele>
        <time>2024-06-19T10:35:24+02:00</time>
      </trkpt>
      <trkpt lat="44.19735" lon="0.9023">
        <ele>100.5</ele>
        <time>2024-06-19T10:35:33+02:00</time>
      </trkpt>
      <trkpt lat="44.19742" lon="0.90218">
        <ele>101</ele>
        <time>2024-06-19T10:35:43+02:00</time>
      </trkpt>
      <trkpt lat="44.1975" lon="0.90207">
        <ele>102.4</ele>
        <time>2024-06-19T10:35:53+02:00</time>
      </trkpt>
      <trkpt lat="44.19755" lon="0.90196">
        <ele>102.4</ele>
        <time>2024-06-19T10:36:02+02:00</time>
      </trkpt>
      <trkpt lat="44.19761" lon="0.90183">
        <ele>102.7</ele>
        <time>2024-06-19T10:36:12+02:00</time>
      </trkpt>
      <trkpt lat="44.19768" lon="0.90171">
        <ele>103.6</ele>
        <time>2024-06-19T10:36:21+02:00</time>
      </trkpt>
      <trkpt lat="44.19774" lon="0.90158">
        <ele>104.8</ele>
        <time>2024-06-19T10:36:31+02:00</time>
      </trkpt>
      <trkpt lat="44.19778" lon="0.90144">
        <ele>105.8</ele>
        <time>2024-06-19T10:36:41+02:00</time>
      </trkpt>
      <trkpt lat="44.1978" lon="0.90128">
        <ele>107</ele>
        <time>2024-06-19T10:36:50+02:00</time>
      </trkpt>
      <trkpt lat="44.19781" lon="0.90114">
        <ele>108</ele>
        <time>2024-06-19T10:37:00+02:00</time>
      </trkpt>
      <trkpt lat="44.19783" lon="0.90096">
        <ele>109.2</ele>
        <time>2024-06-19T10:37:29+02:00</time>
      </trkpt>
      <trkpt lat="44.19782" lon="0.9008">
        <ele>110</ele>
        <time>2024-06-19T10:37:39+02:00</time>
      </trkpt>
      <trkpt lat="44.19783" lon="0.90066">
        <ele>110.9</ele>
        <time>2024-06-19T10:37:48+02:00</time>
      </trkpt>
      <trkpt lat="44.19785" lon="0.90052">
        <ele>112</ele>
        <time>2024-06-19T10:37:58+02:00</time>
      </trkpt>
      <trkpt lat="44.19785" lon="0.90039">
        <ele>112.6</ele>
        <time>2024-06-19T10:38:08+02:00</time>
      </trkpt>
      <trkpt lat="44.19785" lon="0.90023">
        <ele>113.3</ele>
        <time>2024-06-19T10:38:17+02:00</time>
      </trkpt>
      <trkpt lat="44.19785" lon="0.90006">
        <ele>113.9</ele>
        <time>2024-06-19T10:38:27+02:00</time>
      </trkpt>
      <trkpt lat="44.19786" lon="0.89991">
        <ele>114.3</ele>
        <time>2024-06-19T10:38:36+02:00</time>
      </trkpt>
      <trkpt lat="44.19787" lon="0.89975">
        <ele>114.5</ele>
        <time>2024-06-19T10:38:46+02:00</time>
      </trkpt>
      <trkpt lat="44.19785" lon="0.89961">
        <ele>114.5</ele>
        <time>2024-06-19T10:38:56+02:00</time>
      </trkpt>
      <trkpt lat="44.19784" lon="0.89946">
        <ele>115.1</ele>
        <time>2024-06-19T10:39:05+02:00</time>
      </trkpt>
      <trkpt lat="44.19785" lon="0.89931">
        <ele>116.1</ele>
        <time>2024-06-19T10:39:15+02:00</time>
      </trkpt>
      <trkpt lat="44.19785" lon="0.89916">
        <ele>117.2</ele>
        <time>2024-06-19T10:39:24+02:00</time>
      </trkpt>
      <trkpt lat="44.19787" lon="0.89902">
        <ele>118.4</ele>
        <time>2024-06-19T10:39:34+02:00</time>
      </trkpt>
      <trkpt lat="44.19789" lon="0.89889">
        <ele>119.4</ele>
        <time>2024-06-19T10:39:43+02:00</time>
      </trkpt>
      <trkpt lat="44.19791" lon="0.89874">
        <ele>120.2</ele>
        <time>2024-06-19T10:39:52+02:00</time>
      </trkpt>
      <trkpt lat="44.19795" lon="0.8986">
        <ele>121.2</ele>
        <time>2024-06-19T10:40:02+02:00</time>
      </trkpt>
      <trkpt lat="44.19801" lon="0.89848">
        <ele>122.1</ele>
        <time>2024-06-19T10:40:13+02:00</time>
      </trkpt>
      <trkpt lat="44.19807" lon="0.89836">
        <ele>123.2</ele>
        <time>2024-06-19T10:40:22+02:00</time>
      </trkpt>
      <trkpt lat="44.19811" lon="0.89823">
        <ele>124.1</ele>
        <time>2024-06-19T10:40:31+02:00</time>
      </trkpt>
      <trkpt lat="44.19817" lon="0.89812">
        <ele>125.5</ele>
        <time>2024-06-19T10:40:41+02:00</time>
      </trkpt>
      <trkpt lat="44.19822" lon="0.89799">
        <ele>126.4</ele>
        <time>2024-06-19T10:40:51+02:00</time>
      </trkpt>
      <trkpt lat="44.19829" lon="0.89789">
        <ele>127.5</ele>
        <time>2024-06-19T10:41:00+02:00</time>
      </trkpt>
      <trkpt lat="44.19834" lon="0.89774">
        <ele>128</ele>
        <time>2024-06-19T10:41:10+02:00</time>
      </trkpt>
      <trkpt lat="44.1984" lon="0.89759">
        <ele>128.3</ele>
        <time>2024-06-19T10:41:24+02:00</time>
      </trkpt>
      <trkpt lat="44.19845" lon="0.89743">
        <ele>128.2</ele>
        <time>2024-06-19T10:46:39+02:00</time>
      </trkpt>
      <trkpt lat="44.19851" lon="0.89734">
        <ele>128.4</ele>
        <time>2024-06-19T10:46:49+02:00</time>
      </trkpt>
      <trkpt lat="44.19857" lon="0.89723">
        <ele>128.5</ele>
        <time>2024-06-19T10:46:58+02:00</time>
      </trkpt>
      <trkpt lat="44.19863" lon="0.89707">
        <ele>128</ele>
        <time>2024-06-19T10:47:13+02:00</time>
      </trkpt>
      <trkpt lat="44.19867" lon="0.89694">
        <ele>127.4</ele>
        <time>2024-06-19T10:47:22+02:00</time>
      </trkpt>
      <trkpt lat="44.19871" lon="0.89681">
        <ele>126.2</ele>
        <time>2024-06-19T10:47:32+02:00</time>
      </trkpt>
      <trkpt lat="44.19859" lon="0.89677">
        <ele>125.6</ele>
        <time>2024-06-19T10:47:46+02:00</time>
      </trkpt>
      <trkpt lat="44.19851" lon="0.8967">
        <ele>124.5</ele>
        <time>2024-06-19T10:47:56+02:00</time>
      </trkpt>
      <trkpt lat="44.19843" lon="0.89664">
        <ele>123.5</ele>
        <time>2024-06-19T10:48:06+02:00</time>
      </trkpt>
      <trkpt lat="44.19833" lon="0.89656">
        <ele>122.6</ele>
        <time>2024-06-19T10:48:15+02:00</time>
      </trkpt>
      <trkpt lat="44.19825" lon="0.89649">
        <ele>121.5</ele>
        <time>2024-06-19T10:48:24+02:00</time>
      </trkpt>
      <trkpt lat="44.19815" lon="0.89637">
        <ele>119.9</ele>
        <time>2024-06-19T10:48:38+02:00</time>
      </trkpt>
      <trkpt lat="44.19806" lon="0.89626">
        <ele>118.6</ele>
        <time>2024-06-19T10:48:48+02:00</time>
      </trkpt>
      <trkpt lat="44.19798" lon="0.89616">
        <ele>117</ele>
        <time>2024-06-19T10:49:02+02:00</time>
      </trkpt>
      <trkpt lat="44.19791" lon="0.89603">
        <ele>115.6</ele>
        <time>2024-06-19T10:49:16+02:00</time>
      </trkpt>
      <trkpt lat="44.19784" lon="0.89594">
        <ele>114.2</ele>
        <time>2024-06-19T10:49:30+02:00</time>
      </trkpt>
      <trkpt lat="44.19775" lon="0.89583">
        <ele>112.7</ele>
        <time>2024-06-19T10:49:39+02:00</time>
      </trkpt>
      <trkpt lat="44.19773" lon="0.89567">
        <ele>112.5</ele>
        <time>2024-06-19T10:49:49+02:00</time>
      </trkpt>
      <trkpt lat="44.19776" lon="0.89548">
        <ele>112.5</ele>
        <time>2024-06-19T10:50:03+02:00</time>
      </trkpt>
      <trkpt lat="44.19777" lon="0.89533">
        <ele>112.1</ele>
        <time>2024-06-19T10:50:13+02:00</time>
      </trkpt>
      <trkpt lat="44.1978" lon="0.89513">
        <ele>111.7</ele>
        <time>2024-06-19T10:50:27+02:00</time>
      </trkpt>
      <trkpt lat="44.19783" lon="0.89501">
        <ele>111.6</ele>
        <time>2024-06-19T10:50:36+02:00</time>
      </trkpt>
      <trkpt lat="44.19786" lon="0.89488">
        <ele>111.5</ele>
        <time>2024-06-19T10:50:46+02:00</time>
      </trkpt>
      <trkpt lat="44.19785" lon="0.89474">
        <ele>110.9</ele>
        <time>2024-06-19T10:50:55+02:00</time>
      </trkpt>
      <trkpt lat="44.19787" lon="0.89462">
        <ele>110.4</ele>
        <time>2024-06-19T10:51:05+02:00</time>
      </trkpt>
      <trkpt lat="44.19787" lon="0.89447">
        <ele>109.5</ele>
        <time>2024-06-19T10:51:19+02:00</time>
      </trkpt>
      <trkpt lat="44.19781" lon="0.89432">
        <ele>107.6</ele>
        <time>2024-06-19T10:51:33+02:00</time>
      </trkpt>
      <trkpt lat="44.19778" lon="0.8942">
        <ele>106.3</ele>
        <time>2024-06-19T10:51:47+02:00</time>
      </trkpt>
      <trkpt lat="44.1978" lon="0.89402">
        <ele>104.3</ele>
        <time>2024-06-19T10:52:02+02:00</time>
      </trkpt>
      <trkpt lat="44.19778" lon="0.89386">
        <ele>101.9</ele>
        <time>2024-06-19T10:52:22+02:00</time>
      </trkpt>
      <trkpt lat="44.19773" lon="0.89373">
        <ele>100.6</ele>
        <time>2024-06-19T10:52:37+02:00</time>
      </trkpt>
      <trkpt lat="44.19771" lon="0.89359">
        <ele>99.5</ele>
        <time>2024-06-19T10:52:53+02:00</time>
      </trkpt>
      <trkpt lat="44.19768" lon="0.89345">
        <ele>98.3</ele>
        <time>2024-06-19T10:53:07+02:00</time>
      </trkpt>
      <trkpt lat="44.19763" lon="0.89331">
        <ele>96.7</ele>
        <time>2024-06-19T10:53:17+02:00</time>
      </trkpt>
      <trkpt lat="44.19763" lon="0.89313">
        <ele>94.3</ele>
        <time>2024-06-19T10:53:47+02:00</time>
      </trkpt>
      <trkpt lat="44.19773" lon="0.89298">
        <ele>93.4</ele>
        <time>2024-06-19T10:53:56+02:00</time>
      </trkpt>
      <trkpt lat="44.19775" lon="0.89285">
        <ele>91.7</ele>
        <time>2024-06-19T10:54:06+02:00</time>
      </trkpt>
      <trkpt lat="44.19778" lon="0.89273">
        <ele>90.7</ele>
        <time>2024-06-19T10:54:16+02:00</time>
      </trkpt>
      <trkpt lat="44.19782" lon="0.89258">
        <ele>89.8</ele>
        <time>2024-06-19T10:54:30+02:00</time>
      </trkpt>
      <trkpt lat="44.19785" lon="0.89243">
        <ele>88.7</ele>
        <time>2024-06-19T10:54:40+02:00</time>
      </trkpt>
      <trkpt lat="44.19787" lon="0.89228">
        <ele>87.8</ele>
        <time>2024-06-19T10:54:49+02:00</time>
      </trkpt>
      <trkpt lat="44.19788" lon="0.89214">
        <ele>87.1</ele>
        <time>2024-06-19T10:54:59+02:00</time>
      </trkpt>
      <trkpt lat="44.19789" lon="0.89199">
        <ele>86.5</ele>
        <time>2024-06-19T10:55:23+02:00</time>
      </trkpt>
      <trkpt lat="44.19788" lon="0.89179">
        <ele>86.2</ele>
        <time>2024-06-19T10:55:33+02:00</time>
      </trkpt>
      <trkpt lat="44.19791" lon="0.89165">
        <ele>86</ele>
        <time>2024-06-19T10:55:42+02:00</time>
      </trkpt>
      <trkpt lat="44.19789" lon="0.89151">
        <ele>85.4</ele>
        <time>2024-06-19T10:55:51+02:00</time>
      </trkpt>
      <trkpt lat="44.19791" lon="0.89134">
        <ele>85</ele>
        <time>2024-06-19T10:56:01+02:00</time>
      </trkpt>
      <trkpt lat="44.19795" lon="0.89118">
        <ele>85</ele>
        <time>2024-06-19T10:56:11+02:00</time>
      </trkpt>
      <trkpt lat="44.19795" lon="0.89105">
        <ele>84.8</ele>
        <time>2024-06-19T10:56:21+02:00</time>
      </trkpt>
      <trkpt lat="44.19798" lon="0.89087">
        <ele>84.1</ele>
        <time>2024-06-19T10:56:30+02:00</time>
      </trkpt>
      <trkpt lat="44.19799" lon="0.89072">
        <ele>83.6</ele>
        <time>2024-06-19T10:56:40+02:00</time>
      </trkpt>
      <trkpt lat="44.19801" lon="0.89056">
        <ele>83</ele>
        <time>2024-06-19T10:56:49+02:00</time>
      </trkpt>
      <trkpt lat="44.19805" lon="0.89039">
        <ele>82.4</ele>
        <time>2024-06-19T10:56:59+02:00</time>
      </trkpt>
      <trkpt lat="44.19808" lon="0.89023">
        <ele>81.9</ele>
        <time>2024-06-19T10:57:08+02:00</time>
      </trkpt>
      <trkpt lat="44.19812" lon="0.89009">
        <ele>81.6</ele>
        <time>2024-06-19T10:57:17+02:00</time>
      </trkpt>
      <trkpt lat="44.1982" lon="0.88992">
        <ele>81.9</ele>
        <time>2024-06-19T10:57:27+02:00</time>
      </trkpt>
      <trkpt lat="44.19824" lon="0.88981">
        <ele>81.9</ele>
        <time>2024-06-19T10:57:37+02:00</time>
      </trkpt>
      <trkpt lat="44.19831" lon="0.88967">
        <ele>81.9</ele>
        <time>2024-06-19T10:57:46+02:00</time>
      </trkpt>
      <trkpt lat="44.19835" lon="0.88953">
        <ele>82</ele>
        <time>2024-06-19T10:58:00+02:00</time>
      </trkpt>
      <trkpt lat="44.19842" lon="0.88937">
        <ele>81.7</ele>
        <time>2024-06-19T10:58:15+02:00</time>
      </trkpt>
      <trkpt lat="44.19848" lon="0.88919">
        <ele>82</ele>
        <time>2024-06-19T10:58:24+02:00</time>
      </trkpt>
      <trkpt lat="44.1985" lon="0.88903">
        <ele>82.9</ele>
        <time>2024-06-19T10:58:33+02:00</time>
      </trkpt>
      <trkpt lat="44.19853" lon="0.88889">
        <ele>83.7</ele>
        <time>2024-06-19T10:58:43+02:00</time>
      </trkpt>
      <trkpt lat="44.19858" lon="0.88876">
        <ele>85.3</ele>
        <time>2024-06-19T10:58:53+02:00</time>
      </trkpt>
      <trkpt lat="44.19862" lon="0.88863">
        <ele>86.8</ele>
        <time>2024-06-19T10:59:02+02:00</time>
      </trkpt>
      <trkpt lat="44.19867" lon="0.88847">
        <ele>89.4</ele>
        <time>2024-06-19T10:59:17+02:00</time>
      </trkpt>
      <trkpt lat="44.19864" lon="0.88833">
        <ele>91.3</ele>
        <time>2024-06-19T10:59:27+02:00</time>
      </trkpt>
      <trkpt lat="44.19855" lon="0.88825">
        <ele>92.1</ele>
        <time>2024-06-19T10:59:37+02:00</time>
      </trkpt>
      <trkpt lat="44.19847" lon="0.88812">
        <ele>93.9</ele>
        <time>2024-06-19T10:59:51+02:00</time>
      </trkpt>
      <trkpt lat="44.19839" lon="0.88806">
        <ele>94.4</ele>
        <time>2024-06-19T11:00:00+02:00</time>
      </trkpt>
      <trkpt lat="44.19829" lon="0.88805">
        <ele>93.5</ele>
        <time>2024-06-19T11:00:10+02:00</time>
      </trkpt>
      <trkpt lat="44.1982" lon="0.88804">
        <ele>92.7</ele>
        <time>2024-06-19T11:00:20+02:00</time>
      </trkpt>
      <trkpt lat="44.1981" lon="0.88796">
        <ele>93.1</ele>
        <time>2024-06-19T11:00:35+02:00</time>
      </trkpt>
      <trkpt lat="44.19801" lon="0.88791">
        <ele>93.4</ele>
        <time>2024-06-19T11:00:44+02:00</time>
      </trkpt>
      <trkpt lat="44.19787" lon="0.88788">
        <ele>93.5</ele>
        <time>2024-06-19T11:00:54+02:00</time>
      </trkpt>
      <trkpt lat="44.19778" lon="0.88783">
        <ele>94</ele>
        <time>2024-06-19T11:01:03+02:00</time>
      </trkpt>
      <trkpt lat="44.1977" lon="0.88777">
        <ele>94.8</ele>
        <time>2024-06-19T11:01:13+02:00</time>
      </trkpt>
      <trkpt lat="44.1976" lon="0.8877">
        <ele>95.1</ele>
        <time>2024-06-19T11:01:22+02:00</time>
      </trkpt>
      <trkpt lat="44.19752" lon="0.88762">
        <ele>95.4</ele>
        <time>2024-06-19T11:01:37+02:00</time>
      </trkpt>
      <trkpt lat="44.19749" lon="0.88748">
        <ele>96.1</ele>
        <time>2024-06-19T11:01:47+02:00</time>
      </trkpt>
      <trkpt lat="44.19749" lon="0.88733">
        <ele>97.1</ele>
        <time>2024-06-19T11:01:57+02:00</time>
      </trkpt>
      <trkpt lat="44.19751" lon="0.8872">
        <ele>98.1</ele>
        <time>2024-06-19T11:02:06+02:00</time>
      </trkpt>
      <trkpt lat="44.19751" lon="0.88702">
        <ele>98.9</ele>
        <time>2024-06-19T11:02:20+02:00</time>
      </trkpt>
      <trkpt lat="44.1975" lon="0.88685">
        <ele>99.3</ele>
        <time>2024-06-19T11:02:31+02:00</time>
      </trkpt>
      <trkpt lat="44.19751" lon="0.88671">
        <ele>99.9</ele>
        <time>2024-06-19T11:02:40+02:00</time>
      </trkpt>
      <trkpt lat="44.19751" lon="0.88658">
        <ele>100.1</ele>
        <time>2024-06-19T11:02:49+02:00</time>
      </trkpt>
      <trkpt lat="44.19754" lon="0.88643">
        <ele>100.3</ele>
        <time>2024-06-19T11:02:59+02:00</time>
      </trkpt>
      <trkpt lat="44.19763" lon="0.88633">
        <ele>100.9</ele>
        <time>2024-06-19T11:03:09+02:00</time>
      </trkpt>
      <trkpt lat="44.19771" lon="0.88626">
        <ele>101.8</ele>
        <time>2024-06-19T11:03:19+02:00</time>
      </trkpt>
      <trkpt lat="44.19782" lon="0.88623">
        <ele>103.1</ele>
        <time>2024-06-19T11:03:29+02:00</time>
      </trkpt>
      <trkpt lat="44.19794" lon="0.88622">
        <ele>104.6</ele>
        <time>2024-06-19T11:03:39+02:00</time>
      </trkpt>
      <trkpt lat="44.19805" lon="0.88622">
        <ele>105.9</ele>
        <time>2024-06-19T11:03:53+02:00</time>
      </trkpt>
      <trkpt lat="44.19814" lon="0.88621">
        <ele>106.7</ele>
        <time>2024-06-19T11:04:03+02:00</time>
      </trkpt>
      <trkpt lat="44.19826" lon="0.88618">
        <ele>107.8</ele>
        <time>2024-06-19T11:04:13+02:00</time>
      </trkpt>
      <trkpt lat="44.19838" lon="0.88622">
        <ele>109.1</ele>
        <time>2024-06-19T11:04:24+02:00</time>
      </trkpt>
      <trkpt lat="44.19848" lon="0.88621">
        <ele>110.7</ele>
        <time>2024-06-19T11:04:33+02:00</time>
      </trkpt>
      <trkpt lat="44.19857" lon="0.88624">
        <ele>112.3</ele>
        <time>2024-06-19T11:04:44+02:00</time>
      </trkpt>
      <trkpt lat="44.19866" lon="0.88628">
        <ele>113.6</ele>
        <time>2024-06-19T11:04:53+02:00</time>
      </trkpt>
      <trkpt lat="44.19875" lon="0.88634">
        <ele>114.6</ele>
        <time>2024-06-19T11:05:03+02:00</time>
      </trkpt>
      <trkpt lat="44.19886" lon="0.88643">
        <ele>115.7</ele>
        <time>2024-06-19T11:05:17+02:00</time>
      </trkpt>
      <trkpt lat="44.19899" lon="0.88642">
        <ele>117.1</ele>
        <time>2024-06-19T11:05:28+02:00</time>
      </trkpt>
      <trkpt lat="44.1991" lon="0.88639">
        <ele>118.3</ele>
        <time>2024-06-19T11:05:37+02:00</time>
      </trkpt>
      <trkpt lat="44.19919" lon="0.88637">
        <ele>119.4</ele>
        <time>2024-06-19T11:05:47+02:00</time>
      </trkpt>
      <trkpt lat="44.19929" lon="0.88634">
        <ele>120.8</ele>
        <time>2024-06-19T11:05:57+02:00</time>
      </trkpt>
      <trkpt lat="44.19938" lon="0.88633">
        <ele>122.1</ele>
        <time>2024-06-19T11:06:07+02:00</time>
      </trkpt>
      <trkpt lat="44.19952" lon="0.88627">
        <ele>123.8</ele>
        <time>2024-06-19T11:06:21+02:00</time>
      </trkpt>
      <trkpt lat="44.19963" lon="0.88626">
        <ele>125</ele>
        <time>2024-06-19T11:06:31+02:00</time>
      </trkpt>
      <trkpt lat="44.19972" lon="0.88624">
        <ele>126</ele>
        <time>2024-06-19T11:06:41+02:00</time>
      </trkpt>
      <trkpt lat="44.19982" lon="0.88622">
        <ele>126.8</ele>
        <time>2024-06-19T11:06:50+02:00</time>
      </trkpt>
      <trkpt lat="44.19991" lon="0.88616">
        <ele>127.5</ele>
        <time>2024-06-19T11:07:00+02:00</time>
      </trkpt>
      <trkpt lat="44.2" lon="0.88613">
        <ele>128.1</ele>
        <time>2024-06-19T11:07:10+02:00</time>
      </trkpt>
      <trkpt lat="44.20008" lon="0.88604">
        <ele>128.9</ele>
        <time>2024-06-19T11:07:19+02:00</time>
      </trkpt>
      <trkpt lat="44.20018" lon="0.88594">
        <ele>130</ele>
        <time>2024-06-19T11:07:34+02:00</time>
      </trkpt>
      <trkpt lat="44.20031" lon="0.88579">
        <ele>131.2</ele>
        <time>2024-06-19T11:07:53+02:00</time>
      </trkpt>
      <trkpt lat="44.20041" lon="0.88572">
        <ele>132.3</ele>
        <time>2024-06-19T11:08:02+02:00</time>
      </trkpt>
      <trkpt lat="44.20049" lon="0.88564">
        <ele>133.3</ele>
        <time>2024-06-19T11:08:12+02:00</time>
      </trkpt>
      <trkpt lat="44.20058" lon="0.88556">
        <ele>134.7</ele>
        <time>2024-06-19T11:08:21+02:00</time>
      </trkpt>
      <trkpt lat="44.20068" lon="0.88549">
        <ele>135.9</ele>
        <time>2024-06-19T11:08:31+02:00</time>
      </trkpt>
      <trkpt lat="44.20075" lon="0.88538">
        <ele>136</ele>
        <time>2024-06-19T11:08:41+02:00</time>
      </trkpt>
      <trkpt lat="44.20086" lon="0.88527">
        <ele>137.5</ele>
        <time>2024-06-19T11:08:56+02:00</time>
      </trkpt>
      <trkpt lat="44.20095" lon="0.88516">
        <ele>137.9</ele>
        <time>2024-06-19T11:09:05+02:00</time>
      </trkpt>
      <trkpt lat="44.20104" lon="0.88507">
        <ele>138.3</ele>
        <time>2024-06-19T11:09:15+02:00</time>
      </trkpt>
      <trkpt lat="44.20114" lon="0.88501">
        <ele>139.7</ele>
        <time>2024-06-19T11:09:25+02:00</time>
      </trkpt>
      <trkpt lat="44.20123" lon="0.88494">
        <ele>140.6</ele>
        <time>2024-06-19T11:09:35+02:00</time>
      </trkpt>
      <trkpt lat="44.20133" lon="0.88488">
        <ele>141.6</ele>
        <time>2024-06-19T11:09:44+02:00</time>
      </trkpt>
      <trkpt lat="44.20144" lon="0.88478">
        <ele>142.1</ele>
        <time>2024-06-19T11:09:59+02:00</time>
      </trkpt>
      <trkpt lat="44.20154" lon="0.8847">
        <ele>142.9</ele>
        <time>2024-06-19T11:10:08+02:00</time>
      </trkpt>
      <trkpt lat="44.20164" lon="0.88462">
        <ele>143.5</ele>
        <time>2024-06-19T11:10:18+02:00</time>
      </trkpt>
      <trkpt lat="44.20173" lon="0.88456">
        <ele>144.5</ele>
        <time>2024-06-19T11:10:28+02:00</time>
      </trkpt>
      <trkpt lat="44.2018" lon="0.88446">
        <ele>144.7</ele>
        <time>2024-06-19T11:10:38+02:00</time>
      </trkpt>
      <trkpt lat="44.20189" lon="0.88438">
        <ele>145.6</ele>
        <time>2024-06-19T11:10:47+02:00</time>
      </trkpt>
      <trkpt lat="44.20199" lon="0.88428">
        <ele>146.9</ele>
        <time>2024-06-19T11:10:58+02:00</time>
      </trkpt>
      <trkpt lat="44.20209" lon="0.88413">
        <ele>147.7</ele>
        <time>2024-06-19T11:11:12+02:00</time>
      </trkpt>
      <trkpt lat="44.20217" lon="0.88403">
        <ele>148.4</ele>
        <time>2024-06-19T11:11:22+02:00</time>
      </trkpt>
      <trkpt lat="44.20224" lon="0.88393">
        <ele>149.1</ele>
        <time>2024-06-19T11:11:32+02:00</time>
      </trkpt>
      <trkpt lat="44.20232" lon="0.88384">
        <ele>149.8</ele>
        <time>2024-06-19T11:11:41+02:00</time>
      </trkpt>
      <trkpt lat="44.20239" lon="0.88374">
        <ele>150.3</ele>
        <time>2024-06-19T11:11:50+02:00</time>
      </trkpt>
      <trkpt lat="44.2025" lon="0.88366">
        <ele>152.6</ele>
        <time>2024-06-19T11:12:10+02:00</time>
      </trkpt>
      <trkpt lat="44.20257" lon="0.88355">
        <ele>152.5</ele>
        <time>2024-06-19T11:12:24+02:00</time>
      </trkpt>
      <trkpt lat="44.20266" lon="0.8834">
        <ele>152.5</ele>
        <time>2024-06-19T11:12:34+02:00</time>
      </trkpt>
      <trkpt lat="44.20272" lon="0.88328">
        <ele>152.7</ele>
        <time>2024-06-19T11:12:43+02:00</time>
      </trkpt>
      <trkpt lat="44.20278" lon="0.88315">
        <ele>153.1</ele>
        <time>2024-06-19T11:12:53+02:00</time>
      </trkpt>
      <trkpt lat="44.20286" lon="0.88305">
        <ele>154</ele>
        <time>2024-06-19T11:13:03+02:00</time>
      </trkpt>
      <trkpt lat="44.20293" lon="0.88295">
        <ele>154.8</ele>
        <time>2024-06-19T11:13:13+02:00</time>
      </trkpt>
      <trkpt lat="44.20302" lon="0.8828">
        <ele>156</ele>
        <time>2024-06-19T11:13:28+02:00</time>
      </trkpt>
      <trkpt lat="44.20311" lon="0.88269">
        <ele>157.2</ele>
        <time>2024-06-19T11:13:38+02:00</time>
      </trkpt>
      <trkpt lat="44.20318" lon="0.88257">
        <ele>157.8</ele>
        <time>2024-06-19T11:13:47+02:00</time>
      </trkpt>
      <trkpt lat="44.20324" lon="0.88245">
        <ele>158.4</ele>
        <time>2024-06-19T11:13:57+02:00</time>
      </trkpt>
      <trkpt lat="44.20332" lon="0.88235">
        <ele>159.7</ele>
        <time>2024-06-19T11:14:07+02:00</time>
      </trkpt>
      <trkpt lat="44.20338" lon="0.88222">
        <ele>160.3</ele>
        <time>2024-06-19T11:14:17+02:00</time>
      </trkpt>
      <trkpt lat="44.20346" lon="0.88212">
        <ele>160.7</ele>
        <time>2024-06-19T11:14:27+02:00</time>
      </trkpt>
      <trkpt lat="44.20353" lon="0.88202">
        <ele>161.4</ele>
        <time>2024-06-19T11:14:36+02:00</time>
      </trkpt>
      <trkpt lat="44.20362" lon="0.88195">
        <ele>163</ele>
        <time>2024-06-19T11:14:55+02:00</time>
      </trkpt>
      <trkpt lat="44.20364" lon="0.8821">
        <ele>162.3</ele>
        <time>2024-06-19T11:19:30+02:00</time>
      </trkpt>
      <trkpt lat="44.20364" lon="0.88223">
        <ele>161.6</ele>
        <time>2024-06-19T11:19:39+02:00</time>
      </trkpt>
      <trkpt lat="44.20366" lon="0.8824">
        <ele>158.9</ele>
        <time>2024-06-19T11:19:54+02:00</time>
      </trkpt>
      <trkpt lat="44.20365" lon="0.88259">
        <ele>156</ele>
        <time>2024-06-19T11:20:08+02:00</time>
      </trkpt>
      <trkpt lat="44.20364" lon="0.88274">
        <ele>153.9</ele>
        <time>2024-06-19T11:20:18+02:00</time>
      </trkpt>
      <trkpt lat="44.20364" lon="0.88289">
        <ele>151.4</ele>
        <time>2024-06-19T11:20:33+02:00</time>
      </trkpt>
      <trkpt lat="44.20363" lon="0.88305">
        <ele>148.8</ele>
        <time>2024-06-19T11:20:42+02:00</time>
      </trkpt>
      <trkpt lat="44.20362" lon="0.88321">
        <ele>147.2</ele>
        <time>2024-06-19T11:20:57+02:00</time>
      </trkpt>
      <trkpt lat="44.20363" lon="0.88337">
        <ele>145.5</ele>
        <time>2024-06-19T11:21:07+02:00</time>
      </trkpt>
      <trkpt lat="44.20367" lon="0.88359">
        <ele>142.8</ele>
        <time>2024-06-19T11:21:22+02:00</time>
      </trkpt>
      <trkpt lat="44.20366" lon="0.88375">
        <ele>141.7</ele>
        <time>2024-06-19T11:21:32+02:00</time>
      </trkpt>
      <trkpt lat="44.20365" lon="0.8839">
        <ele>140.7</ele>
        <time>2024-06-19T11:21:41+02:00</time>
      </trkpt>
      <trkpt lat="44.20366" lon="0.88403">
        <ele>138.5</ele>
        <time>2024-06-19T11:21:55+02:00</time>
      </trkpt>
      <trkpt lat="44.20362" lon="0.88417">
        <ele>136.8</ele>
        <time>2024-06-19T11:22:05+02:00</time>
      </trkpt>
      <trkpt lat="44.20361" lon="0.88435">
        <ele>135.8</ele>
        <time>2024-06-19T11:22:20+02:00</time>
      </trkpt>
      <trkpt lat="44.20362" lon="0.88453">
        <ele>134.6</ele>
        <time>2024-06-19T11:22:34+02:00</time>
      </trkpt>
      <trkpt lat="44.20364" lon="0.88467">
        <ele>133.4</ele>
        <time>2024-06-19T11:22:43+02:00</time>
      </trkpt>
      <trkpt lat="44.20371" lon="0.88479">
        <ele>130.7</ele>
        <time>2024-06-19T11:22:53+02:00</time>
      </trkpt>
      <trkpt lat="44.20375" lon="0.88495">
        <ele>128.3</ele>
        <time>2024-06-19T11:23:08+02:00</time>
      </trkpt>
      <trkpt lat="44.20377" lon="0.88513">
        <ele>125.9</ele>
        <time>2024-06-19T11:23:22+02:00</time>
      </trkpt>
      <trkpt lat="44.2038" lon="0.88529">
        <ele>123.6</ele>
        <time>2024-06-19T11:23:31+02:00</time>
      </trkpt>
      <trkpt lat="44.20382" lon="0.88544">
        <ele>121.5</ele>
        <time>2024-06-19T11:23:50+02:00</time>
      </trkpt>
      <trkpt lat="44.20385" lon="0.88561">
        <ele>119.2</ele>
        <time>2024-06-19T11:24:00+02:00</time>
      </trkpt>
      <trkpt lat="44.20386" lon="0.88575">
        <ele>117.4</ele>
        <time>2024-06-19T11:24:09+02:00</time>
      </trkpt>
      <trkpt lat="44.20386" lon="0.88588">
        <ele>116.3</ele>
        <time>2024-06-19T11:24:19+02:00</time>
      </trkpt>
      <trkpt lat="44.20389" lon="0.88601">
        <ele>115.3</ele>
        <time>2024-06-19T11:24:28+02:00</time>
      </trkpt>
      <trkpt lat="44.20398" lon="0.88614">
        <ele>113</ele>
        <time>2024-06-19T11:24:43+02:00</time>
      </trkpt>
      <trkpt lat="44.20402" lon="0.88628">
        <ele>111.1</ele>
        <time>2024-06-19T11:24:53+02:00</time>
      </trkpt>
      <trkpt lat="44.20409" lon="0.88639">
        <ele>109.2</ele>
        <time>2024-06-19T11:25:02+02:00</time>
      </trkpt>
      <trkpt lat="44.20413" lon="0.8865">
        <ele>108</ele>
        <time>2024-06-19T11:25:11+02:00</time>
      </trkpt>
      <trkpt lat="44.20418" lon="0.88663">
        <ele>107</ele>
        <time>2024-06-19T11:25:21+02:00</time>
      </trkpt>
      <trkpt lat="44.20418" lon="0.88677">
        <ele>105.3</ele>
        <time>2024-06-19T11:25:30+02:00</time>
      </trkpt>
      <trkpt lat="44.20424" lon="0.88688">
        <ele>103.5</ele>
        <time>2024-06-19T11:25:40+02:00</time>
      </trkpt>
      <trkpt lat="44.20425" lon="0.88703">
        <ele>101.8</ele>
        <time>2024-06-19T11:25:54+02:00</time>
      </trkpt>
      <trkpt lat="44.20426" lon="0.88719">
        <ele>100</ele>
        <time>2024-06-19T11:26:24+02:00</time>
      </trkpt>
      <trkpt lat="44.20427" lon="0.88736">
        <ele>98.3</ele>
        <time>2024-06-19T11:26:39+02:00</time>
      </trkpt>
      <trkpt lat="44.20429" lon="0.88749">
        <ele>96.8</ele>
        <time>2024-06-19T11:26:53+02:00</time>
      </trkpt>
      <trkpt lat="44.2043" lon="0.88763">
        <ele>95.8</ele>
        <time>2024-06-19T11:27:13+02:00</time>
      </trkpt>
      <trkpt lat="44.20424" lon="0.88776">
        <ele>95.6</ele>
        <time>2024-06-19T11:28:03+02:00</time>
      </trkpt>
      <trkpt lat="44.20421" lon="0.88793">
        <ele>94.2</ele>
        <time>2024-06-19T11:28:17+02:00</time>
      </trkpt>
      <trkpt lat="44.20417" lon="0.88804">
        <ele>93.1</ele>
        <time>2024-06-19T11:28:27+02:00</time>
      </trkpt>
      <trkpt lat="44.20412" lon="0.88816">
        <ele>93.3</ele>
        <time>2024-06-19T11:28:36+02:00</time>
      </trkpt>
      <trkpt lat="44.20406" lon="0.88831">
        <ele>93.2</ele>
        <time>2024-06-19T11:28:51+02:00</time>
      </trkpt>
      <trkpt lat="44.20405" lon="0.88846">
        <ele>92.6</ele>
        <time>2024-06-19T11:29:00+02:00</time>
      </trkpt>
      <trkpt lat="44.20401" lon="0.88863">
        <ele>92.1</ele>
        <time>2024-06-19T11:29:19+02:00</time>
      </trkpt>
      <trkpt lat="44.20402" lon="0.88879">
        <ele>91.7</ele>
        <time>2024-06-19T11:29:29+02:00</time>
      </trkpt>
      <trkpt lat="44.20401" lon="0.88891">
        <ele>91.5</ele>
        <time>2024-06-19T11:30:33+02:00</time>
      </trkpt>
      <trkpt lat="44.20402" lon="0.88906">
        <ele>91.5</ele>
        <time>2024-06-19T11:30:48+02:00</time>
      </trkpt>
      <trkpt lat="44.20401" lon="0.88921">
        <ele>91.4</ele>
        <time>2024-06-19T11:31:42+02:00</time>
      </trkpt>
      <trkpt lat="44.20393" lon="0.88937">
        <ele>90.6</ele>
        <time>2024-06-19T11:31:56+02:00</time>
      </trkpt>
      <trkpt lat="44.2039" lon="0.88949">
        <ele>90.1</ele>
        <time>2024-06-19T11:32:05+02:00</time>
      </trkpt>
      <trkpt lat="44.20385" lon="0.88961">
        <ele>90.2</ele>
        <time>2024-06-19T11:32:15+02:00</time>
      </trkpt>
      <trkpt lat="44.2038" lon="0.88973">
        <ele>90.3</ele>
        <time>2024-06-19T11:32:24+02:00</time>
      </trkpt>
      <trkpt lat="44.20374" lon="0.88987">
        <ele>90</ele>
        <time>2024-06-19T11:32:34+02:00</time>
      </trkpt>
      <trkpt lat="44.2037" lon="0.89001">
        <ele>89.3</ele>
        <time>2024-06-19T11:32:43+02:00</time>
      </trkpt>
      <trkpt lat="44.20363" lon="0.89014">
        <ele>89.1</ele>
        <time>2024-06-19T11:32:53+02:00</time>
      </trkpt>
      <trkpt lat="44.20356" lon="0.89024">
        <ele>89.2</ele>
        <time>2024-06-19T11:33:02+02:00</time>
      </trkpt>
      <trkpt lat="44.20351" lon="0.89035">
        <ele>89.5</ele>
        <time>2024-06-19T11:33:11+02:00</time>
      </trkpt>
      <trkpt lat="44.20351" lon="0.89049">
        <ele>89.8</ele>
        <time>2024-06-19T11:33:21+02:00</time>
      </trkpt>
      <trkpt lat="44.20361" lon="0.89053">
        <ele>89.9</ele>
        <time>2024-06-19T11:33:30+02:00</time>
      </trkpt>
      <trkpt lat="44.20371" lon="0.89057">
        <ele>89.9</ele>
        <time>2024-06-19T11:33:40+02:00</time>
      </trkpt>
      <trkpt lat="44.20381" lon="0.89062">
        <ele>89.6</ele>
        <time>2024-06-19T11:33:50+02:00</time>
      </trkpt>
      <trkpt lat="44.20392" lon="0.89069">
        <ele>89.8</ele>
        <time>2024-06-19T11:33:59+02:00</time>
      </trkpt>
      <trkpt lat="44.20403" lon="0.89072">
        <ele>90.7</ele>
        <time>2024-06-19T11:34:08+02:00</time>
      </trkpt>
      <trkpt lat="44.20414" lon="0.89079">
        <ele>91.7</ele>
        <time>2024-06-19T11:34:18+02:00</time>
      </trkpt>
      <trkpt lat="44.20423" lon="0.89082">
        <ele>92.2</ele>
        <time>2024-06-19T11:34:27+02:00</time>
      </trkpt>
      <trkpt lat="44.20432" lon="0.89089">
        <ele>92</ele>
        <time>2024-06-19T11:34:37+02:00</time>
      </trkpt>
      <trkpt lat="44.20444" lon="0.89089">
        <ele>92.7</ele>
        <time>2024-06-19T11:34:47+02:00</time>
      </trkpt>
      <trkpt lat="44.20455" lon="0.89096">
        <ele>93.6</ele>
        <time>2024-06-19T11:34:57+02:00</time>
      </trkpt>
      <trkpt lat="44.20464" lon="0.89102">
        <ele>93.7</ele>
        <time>2024-06-19T11:35:07+02:00</time>
      </trkpt>
      <trkpt lat="44.20474" lon="0.89107">
        <ele>93.6</ele>
        <time>2024-06-19T11:35:16+02:00</time>
      </trkpt>
      <trkpt lat="44.20483" lon="0.89111">
        <ele>93.4</ele>
        <time>2024-06-19T11:35:25+02:00</time>
      </trkpt>
      <trkpt lat="44.20492" lon="0.89118">
        <ele>93.3</ele>
        <time>2024-06-19T11:35:35+02:00</time>
      </trkpt>
      <trkpt lat="44.20499" lon="0.89127">
        <ele>93.3</ele>
        <time>2024-06-19T11:35:44+02:00</time>
      </trkpt>
      <trkpt lat="44.2051" lon="0.89131">
        <ele>93.4</ele>
        <time>2024-06-19T11:35:54+02:00</time>
      </trkpt>
      <trkpt lat="44.20521" lon="0.89135">
        <ele>93.2</ele>
        <time>2024-06-19T11:36:04+02:00</time>
      </trkpt>
      <trkpt lat="44.20529" lon="0.89148">
        <ele>92.7</ele>
        <time>2024-06-19T11:36:14+02:00</time>
      </trkpt>
      <trkpt lat="44.20535" lon="0.89159">
        <ele>92.3</ele>
        <time>2024-06-19T11:36:23+02:00</time>
      </trkpt>
      <trkpt lat="44.20545" lon="0.89166">
        <ele>92</ele>
        <time>2024-06-19T11:36:32+02:00</time>
      </trkpt>
      <trkpt lat="44.20553" lon="0.89172">
        <ele>91.8</ele>
        <time>2024-06-19T11:36:41+02:00</time>
      </trkpt>
      <trkpt lat="44.2056" lon="0.89185">
        <ele>91.6</ele>
        <time>2024-06-19T11:36:55+02:00</time>
      </trkpt>
      <trkpt lat="44.20565" lon="0.89198">
        <ele>91.1</ele>
        <time>2024-06-19T11:37:05+02:00</time>
      </trkpt>
      <trkpt lat="44.20574" lon="0.89205">
        <ele>90.9</ele>
        <time>2024-06-19T11:37:14+02:00</time>
      </trkpt>
      <trkpt lat="44.20583" lon="0.89214">
        <ele>90.6</ele>
        <time>2024-06-19T11:37:23+02:00</time>
      </trkpt>
      <trkpt lat="44.20591" lon="0.89224">
        <ele>90.5</ele>
        <time>2024-06-19T11:37:33+02:00</time>
      </trkpt>
      <trkpt lat="44.20601" lon="0.89229">
        <ele>90.9</ele>
        <time>2024-06-19T11:37:43+02:00</time>
      </trkpt>
      <trkpt lat="44.2061" lon="0.89233">
        <ele>91.2</ele>
        <time>2024-06-19T11:37:52+02:00</time>
      </trkpt>
      <trkpt lat="44.20618" lon="0.89247">
        <ele>91</ele>
        <time>2024-06-19T11:38:01+02:00</time>
      </trkpt>
      <trkpt lat="44.20626" lon="0.89256">
        <ele>91.1</ele>
        <time>2024-06-19T11:38:11+02:00</time>
      </trkpt>
      <trkpt lat="44.20637" lon="0.89259">
        <ele>91.9</ele>
        <time>2024-06-19T11:38:21+02:00</time>
      </trkpt>
      <trkpt lat="44.20647" lon="0.89269">
        <ele>91.3</ele>
        <time>2024-06-19T11:38:30+02:00</time>
      </trkpt>
      <trkpt lat="44.20655" lon="0.89276">
        <ele>90.8</ele>
        <time>2024-06-19T11:38:39+02:00</time>
      </trkpt>
      <trkpt lat="44.20666" lon="0.8928">
        <ele>90.9</ele>
        <time>2024-06-19T11:38:49+02:00</time>
      </trkpt>
      <trkpt lat="44.20675" lon="0.89286">
        <ele>91.6</ele>
        <time>2024-06-19T11:38:58+02:00</time>
      </trkpt>
      <trkpt lat="44.20687" lon="0.89288">
        <ele>92.6</ele>
        <time>2024-06-19T11:39:33+02:00</time>
      </trkpt>
      <trkpt lat="44.20697" lon="0.89293">
        <ele>92.9</ele>
        <time>2024-06-19T11:39:42+02:00</time>
      </trkpt>
      <trkpt lat="44.20708" lon="0.89293">
        <ele>92.7</ele>
        <time>2024-06-19T11:39:52+02:00</time>
      </trkpt>
      <trkpt lat="44.20721" lon="0.89301">
        <ele>92.2</ele>
        <time>2024-06-19T11:40:01+02:00</time>
      </trkpt>
      <trkpt lat="44.20728" lon="0.89314">
        <ele>92</ele>
        <time>2024-06-19T11:40:11+02:00</time>
      </trkpt>
      <trkpt lat="44.20734" lon="0.89324">
        <ele>91.7</ele>
        <time>2024-06-19T11:40:21+02:00</time>
      </trkpt>
      <trkpt lat="44.20742" lon="0.89331">
        <ele>91.2</ele>
        <time>2024-06-19T11:40:45+02:00</time>
      </trkpt>
      <trkpt lat="44.20752" lon="0.89338">
        <ele>91</ele>
        <time>2024-06-19T11:40:55+02:00</time>
      </trkpt>
      <trkpt lat="44.20762" lon="0.89345">
        <ele>91.3</ele>
        <time>2024-06-19T11:41:04+02:00</time>
      </trkpt>
      <trkpt lat="44.20772" lon="0.89347">
        <ele>91.7</ele>
        <time>2024-06-19T11:41:13+02:00</time>
      </trkpt>
      <trkpt lat="44.20778" lon="0.89363">
        <ele>90.9</ele>
        <time>2024-06-19T11:41:48+02:00</time>
      </trkpt>
      <trkpt lat="44.20786" lon="0.89374">
        <ele>90.5</ele>
        <time>2024-06-19T11:42:03+02:00</time>
      </trkpt>
      <trkpt lat="44.20795" lon="0.89384">
        <ele>90.1</ele>
        <time>2024-06-19T11:42:13+02:00</time>
      </trkpt>
      <trkpt lat="44.20809" lon="0.89386">
        <ele>90.4</ele>
        <time>2024-06-19T11:42:22+02:00</time>
      </trkpt>
      <trkpt lat="44.2082" lon="0.89389">
        <ele>90.5</ele>
        <time>2024-06-19T11:42:31+02:00</time>
      </trkpt>
      <trkpt lat="44.20829" lon="0.89397">
        <ele>90.3</ele>
        <time>2024-06-19T11:42:47+02:00</time>
      </trkpt>
      <trkpt lat="44.20841" lon="0.89392">
        <ele>90.8</ele>
        <time>2024-06-19T11:43:00+02:00</time>
      </trkpt>
    </trkseg>
  </trk>
</gpx>